Home > Products > Valid Products > TAF

000
FTUS44 KHGX 012033 AAA
TAFCLL
TAF AMD
KCLL 012033Z 0121/0218 17014KT P6SM VCSH SCT035 BKN200
      TEMPO 0121/0123 VRB23KT TSRA BKN030CB
     FM020200 16010KT P6SM SCT025 BKN140
     FM020700 16009KT P6SM BKN010
     FM021600 18010KT P6SM BKN020=



000
FTUS44 KHGX 012033 AAA
TAFLBX
TAF AMD
KLBX 012033Z 0121/0218 15017G25KT P6SM SCT020 BKN030
      TEMPO 0121/0124 -RA BKN022
     FM020200 15007KT P6SM SCT020 BKN140
     FM020600 16007KT 5SM BR SCT006 BKN012
     FM021630 18011KT P6SM BKN020=



000
FTUS44 KHGX 012033 AAA
TAFCLL
TAF AMD
KCLL 012033Z 0121/0218 17014KT P6SM VCSH SCT035 BKN200
      TEMPO 0121/0123 VRB23KT TSRA BKN030CB
     FM020200 16010KT P6SM SCT025 BKN140
     FM020700 16009KT P6SM BKN010
     FM021600 18010KT P6SM BKN020=



000
FTUS44 KHGX 012033 AAA
TAFLBX
TAF AMD
KLBX 012033Z 0121/0218 15017G25KT P6SM SCT020 BKN030
      TEMPO 0121/0124 -RA BKN022
     FM020200 15007KT P6SM SCT020 BKN140
     FM020600 16007KT 5SM BR SCT006 BKN012
     FM021630 18011KT P6SM BKN020=



000
FTUS44 KHGX 012031 AAA
TAFCXO
TAF AMD
KCXO 012031Z 0121/0218 17010KT P6SM VCSH SCT035 BKN060 BKN080
      TEMPO 0121/0122 VRB25KT 2SM TSRA BKN030CB
     FM020200 16008KT P6SM SCT025 BKN140
     FM020700 16006KT 5SM BR SCT007 BKN012
     FM021600 18011KT P6SM BKN020=



000
FTUS44 KHGX 012031 AAA
TAFCXO
TAF AMD
KCXO 012031Z 0121/0218 17010KT P6SM VCSH SCT035 BKN060 BKN080
      TEMPO 0121/0122 VRB25KT 2SM TSRA BKN030CB
     FM020200 16008KT P6SM SCT025 BKN140
     FM020700 16006KT 5SM BR SCT007 BKN012
     FM021600 18011KT P6SM BKN020=



000
FTUS44 KHGX 012031 AAA
TAFCXO
TAF AMD
KCXO 012031Z 0121/0218 17010KT P6SM VCSH SCT035 BKN060 BKN080
      TEMPO 0121/0122 VRB25KT 2SM TSRA BKN030CB
     FM020200 16008KT P6SM SCT025 BKN140
     FM020700 16006KT 5SM BR SCT007 BKN012
     FM021600 18011KT P6SM BKN020=



000
FTUS44 KHGX 012010 AAA
TAFHOU
TAF AMD
KHOU 012010Z 0120/0218 15012G22KT P6SM VCSH SCT035 SCT140 OVC250
      TEMPO 0122/0124 -RA
     FM020200 15007KT P6SM SCT020 BKN140
     FM020800 16007KT P6SM SCT009 BKN015
     FM021600 18011KT P6SM BKN020=



000
FTUS44 KHGX 012010 AAA
TAFHOU
TAF AMD
KHOU 012010Z 0120/0218 15012G22KT P6SM VCSH SCT035 SCT140 OVC250
      TEMPO 0122/0124 -RA
     FM020200 15007KT P6SM SCT020 BKN140
     FM020800 16007KT P6SM SCT009 BKN015
     FM021600 18011KT P6SM BKN020=



000
FTUS44 KHGX 012009 AAB
TAFIAH
TAF AMD
KIAH 012009Z 0120/0224 16010KT P6SM VCSH SCT030 BKN070 OVC170
      TEMPO 0121/0123 TSRA BKN030CB
     FM020200 16008KT P6SM SCT025 BKN140
     FM020900 16006KT P6SM SCT009 BKN015
     FM021600 18011KT P6SM BKN020
     FM021900 18012G22KT P6SM SCT040 SCT250=



000
FTUS44 KHGX 012009 AAB
TAFIAH
TAF AMD
KIAH 012009Z 0120/0224 16010KT P6SM VCSH SCT030 BKN070 OVC170
      TEMPO 0121/0123 TSRA BKN030CB
     FM020200 16008KT P6SM SCT025 BKN140
     FM020900 16006KT P6SM SCT009 BKN015
     FM021600 18011KT P6SM BKN020
     FM021900 18012G22KT P6SM SCT040 SCT250=



000
FTUS44 KHGX 011825 AAA
TAFIAH
TAF AMD
KIAH 011825Z 0118/0224 19007G15KT P6SM VCTS SCT030CB BKN070
      TEMPO 0119/0120 VRB25KT 2SM TSRA BKN028CB
     FM012000 17013KT P6SM VCSH SCT035 BKN070 OVC170
      TEMPO 0120/0124 TSRA BKN030CB
     FM020200 16008KT P6SM SCT025 BKN140
     FM020900 16006KT P6SM SCT009 BKN015
     FM021600 18011KT P6SM BKN020
     FM021900 18012G22KT P6SM SCT040 SCT250=



000
FTUS44 KHGX 011825 AAA
TAFIAH
TAF AMD
KIAH 011825Z 0118/0224 19007G15KT P6SM VCTS SCT030CB BKN070
      TEMPO 0119/0120 VRB25KT 2SM TSRA BKN028CB
     FM012000 17013KT P6SM VCSH SCT035 BKN070 OVC170
      TEMPO 0120/0124 TSRA BKN030CB
     FM020200 16008KT P6SM SCT025 BKN140
     FM020900 16006KT P6SM SCT009 BKN015
     FM021600 18011KT P6SM BKN020
     FM021900 18012G22KT P6SM SCT040 SCT250=



000
FTUS44 KHGX 011825 AAA
TAFIAH
TAF AMD
KIAH 011825Z 0118/0224 19007G15KT P6SM VCTS SCT030CB BKN070
      TEMPO 0119/0120 VRB25KT 2SM TSRA BKN028CB
     FM012000 17013KT P6SM VCSH SCT035 BKN070 OVC170
      TEMPO 0120/0124 TSRA BKN030CB
     FM020200 16008KT P6SM SCT025 BKN140
     FM020900 16006KT P6SM SCT009 BKN015
     FM021600 18011KT P6SM BKN020
     FM021900 18012G22KT P6SM SCT040 SCT250=



000
FTUS44 KHGX 011825 AAA
TAFIAH
TAF AMD
KIAH 011825Z 0118/0224 19007G15KT P6SM VCTS SCT030CB BKN070
      TEMPO 0119/0120 VRB25KT 2SM TSRA BKN028CB
     FM012000 17013KT P6SM VCSH SCT035 BKN070 OVC170
      TEMPO 0120/0124 TSRA BKN030CB
     FM020200 16008KT P6SM SCT025 BKN140
     FM020900 16006KT P6SM SCT009 BKN015
     FM021600 18011KT P6SM BKN020
     FM021900 18012G22KT P6SM SCT040 SCT250=



000
FTUS44 KHGX 011814 AAA
TAFSGR
TAF AMD
KSGR 011814Z 0118/0218 17012KT P6SM VCTS SCT030CB BKN200
      TEMPO 0118/0119 VRB25KT 2SM TSRA BKN028CB
     FM011900 17012KT P6SM VCSH SCT035 BKN200
      TEMPO 0122/0201 -RA
     FM020200 15007KT P6SM SCT020 BKN140
     FM020800 16007KT P6SM SCT009 BKN015
     FM021600 18011KT P6SM BKN020=



000
FTUS44 KHGX 011814 AAA
TAFSGR
TAF AMD
KSGR 011814Z 0118/0218 17012KT P6SM VCTS SCT030CB BKN200
      TEMPO 0118/0119 VRB25KT 2SM TSRA BKN028CB
     FM011900 17012KT P6SM VCSH SCT035 BKN200
      TEMPO 0122/0201 -RA
     FM020200 15007KT P6SM SCT020 BKN140
     FM020800 16007KT P6SM SCT009 BKN015
     FM021600 18011KT P6SM BKN020=



000
FTUS44 KHGX 011814 AAA
TAFSGR
TAF AMD
KSGR 011814Z 0118/0218 17012KT P6SM VCTS SCT030CB BKN200
      TEMPO 0118/0119 VRB25KT 2SM TSRA BKN028CB
     FM011900 17012KT P6SM VCSH SCT035 BKN200
      TEMPO 0122/0201 -RA
     FM020200 15007KT P6SM SCT020 BKN140
     FM020800 16007KT P6SM SCT009 BKN015
     FM021600 18011KT P6SM BKN020=



000
FTUS44 KHGX 011814 AAA
TAFSGR
TAF AMD
KSGR 011814Z 0118/0218 17012KT P6SM VCTS SCT030CB BKN200
      TEMPO 0118/0119 VRB25KT 2SM TSRA BKN028CB
     FM011900 17012KT P6SM VCSH SCT035 BKN200
      TEMPO 0122/0201 -RA
     FM020200 15007KT P6SM SCT020 BKN140
     FM020800 16007KT P6SM SCT009 BKN015
     FM021600 18011KT P6SM BKN020=



000
FTUS44 KHGX 011720
TAFGLS
TAF
KGLS 011720Z 0118/0218 14012KT P6SM VCSH SCT015 SCT020 BKN200
      TEMPO 0122/0201 -RA
     FM020300 15010KT 6SM BR BKN015
     FM020900 16010KT 4SM BR BKN008
     FM021700 18014KT 4SM BR BKN012=



000
FTUS44 KHGX 011720
TAFCXO
TAF
KCXO 011720Z 0118/0218 19010KT P6SM SCT035 BKN250
     FM012000 16011KT P6SM VCSH SCT035 BKN200
      TEMPO 0120/0124 TSRA BKN030CB
     FM020200 16008KT P6SM SCT025 BKN140
     FM020700 16006KT 5SM BR SCT007 BKN012
     FM021600 18011KT P6SM BKN020=



000
FTUS44 KHGX 011720
TAFUTS
TAF
KUTS 011720Z 0118/0218 18010KT P6SM BKN035 BKN200
     FM012000 17010KT P6SM VCSH SCT035 BKN200
      TEMPO 0121/0201 -TSRA BKN030CB
     FM020200 17007KT P6SM SCT025 BKN140
     FM020700 17009KT P6SM BKN010
     FM021600 18010KT P6SM BKN020=



000
FTUS44 KHGX 011720
TAFHOU
TAF
KHOU 011720Z 0118/0218 17012KT P6SM VCSH SCT035 BKN200
      TEMPO 0122/0201 -RA
     FM020200 15007KT P6SM SCT020 BKN140
     FM020800 16007KT P6SM SCT009 BKN015
     FM021600 18011KT P6SM BKN020=



000
FTUS44 KHGX 011720
TAFCLL
TAF
KCLL 011720Z 0118/0218 18010KT P6SM BKN035 BKN200
     FM012000 17015KT P6SM VCSH SCT035 BKN200
      TEMPO 0121/0201 -TSRA BKN030CB
     FM020200 16010KT P6SM SCT025 BKN140
     FM020700 16009KT P6SM BKN010
     FM021600 18010KT P6SM BKN020=



000
FTUS44 KHGX 011720
TAFLBX
TAF
KLBX 011720Z 0118/0218 17014KT P6SM VCSH SCT035 BKN200
      TEMPO 0122/0201 -RA
     FM020200 15007KT P6SM SCT020 BKN140
     FM020600 16007KT 5SM BR SCT006 BKN012
     FM021630 18011KT P6SM BKN020=



000
FTUS44 KHGX 011720
TAFGLS
TAF
KGLS 011720Z 0118/0218 14012KT P6SM VCSH SCT015 SCT020 BKN200
      TEMPO 0122/0201 -RA
     FM020300 15010KT 6SM BR BKN015
     FM020900 16010KT 4SM BR BKN008
     FM021700 18014KT 4SM BR BKN012=



000
FTUS44 KHGX 011720
TAFLBX
TAF
KLBX 011720Z 0118/0218 17014KT P6SM VCSH SCT035 BKN200
      TEMPO 0122/0201 -RA
     FM020200 15007KT P6SM SCT020 BKN140
     FM020600 16007KT 5SM BR SCT006 BKN012
     FM021630 18011KT P6SM BKN020=



000
FTUS44 KHGX 011720
TAFUTS
TAF
KUTS 011720Z 0118/0218 18010KT P6SM BKN035 BKN200
     FM012000 17010KT P6SM VCSH SCT035 BKN200
      TEMPO 0121/0201 -TSRA BKN030CB
     FM020200 17007KT P6SM SCT025 BKN140
     FM020700 17009KT P6SM BKN010
     FM021600 18010KT P6SM BKN020=



000
FTUS44 KHGX 011720
TAFUTS
TAF
KUTS 011720Z 0118/0218 18010KT P6SM BKN035 BKN200
     FM012000 17010KT P6SM VCSH SCT035 BKN200
      TEMPO 0121/0201 -TSRA BKN030CB
     FM020200 17007KT P6SM SCT025 BKN140
     FM020700 17009KT P6SM BKN010
     FM021600 18010KT P6SM BKN020=



000
FTUS44 KHGX 011720
TAFCXO
TAF
KCXO 011720Z 0118/0218 19010KT P6SM SCT035 BKN250
     FM012000 16011KT P6SM VCSH SCT035 BKN200
      TEMPO 0120/0124 TSRA BKN030CB
     FM020200 16008KT P6SM SCT025 BKN140
     FM020700 16006KT 5SM BR SCT007 BKN012
     FM021600 18011KT P6SM BKN020=



000
FTUS44 KHGX 011720
TAFIAH
TAF
KIAH 011720Z 0118/0224 18011KT P6SM VCSH SCT035 BKN070 BKN200
      TEMPO 0120/0124 TSRA BKN030CB
     FM020200 16008KT P6SM SCT025 BKN140
     FM020900 16006KT P6SM SCT009 BKN015
     FM021600 18011KT P6SM BKN020
     FM021900 18012G22KT P6SM SCT040 SCT250=



000
FTUS44 KHGX 011720
TAFGLS
TAF
KGLS 011720Z 0118/0218 14012KT P6SM VCSH SCT015 SCT020 BKN200
      TEMPO 0122/0201 -RA
     FM020300 15010KT 6SM BR BKN015
     FM020900 16010KT 4SM BR BKN008
     FM021700 18014KT 4SM BR BKN012=



000
FTUS44 KHGX 011720
TAFIAH
TAF
KIAH 011720Z 0118/0224 18011KT P6SM VCSH SCT035 BKN070 BKN200
      TEMPO 0120/0124 TSRA BKN030CB
     FM020200 16008KT P6SM SCT025 BKN140
     FM020900 16006KT P6SM SCT009 BKN015
     FM021600 18011KT P6SM BKN020
     FM021900 18012G22KT P6SM SCT040 SCT250=



000
FTUS44 KHGX 011720
TAFSGR
TAF
KSGR 011720Z 0118/0218 17012KT P6SM VCSH SCT035 BKN200
      TEMPO 0122/0201 -RA
     FM020200 15007KT P6SM SCT020 BKN140
     FM020800 16007KT P6SM SCT009 BKN015
     FM021600 18011KT P6SM BKN020=



000
FTUS44 KHGX 011720
TAFHOU
TAF
KHOU 011720Z 0118/0218 17012KT P6SM VCSH SCT035 BKN200
      TEMPO 0122/0201 -RA
     FM020200 15007KT P6SM SCT020 BKN140
     FM020800 16007KT P6SM SCT009 BKN015
     FM021600 18011KT P6SM BKN020=



000
FTUS44 KHGX 011720
TAFCLL
TAF
KCLL 011720Z 0118/0218 18010KT P6SM BKN035 BKN200
     FM012000 17015KT P6SM VCSH SCT035 BKN200
      TEMPO 0121/0201 -TSRA BKN030CB
     FM020200 16010KT P6SM SCT025 BKN140
     FM020700 16009KT P6SM BKN010
     FM021600 18010KT P6SM BKN020=



000
FTUS44 KHGX 011720
TAFCXO
TAF
KCXO 011720Z 0118/0218 19010KT P6SM SCT035 BKN250
     FM012000 16011KT P6SM VCSH SCT035 BKN200
      TEMPO 0120/0124 TSRA BKN030CB
     FM020200 16008KT P6SM SCT025 BKN140
     FM020700 16006KT 5SM BR SCT007 BKN012
     FM021600 18011KT P6SM BKN020=



000
FTUS44 KHGX 011720
TAFCXO
TAF
KCXO 011720Z 0118/0218 19010KT P6SM SCT035 BKN250
     FM012000 16011KT P6SM VCSH SCT035 BKN200
      TEMPO 0120/0124 TSRA BKN030CB
     FM020200 16008KT P6SM SCT025 BKN140
     FM020700 16006KT 5SM BR SCT007 BKN012
     FM021600 18011KT P6SM BKN020=



000
FTUS44 KHGX 011720
TAFSGR
TAF
KSGR 011720Z 0118/0218 17012KT P6SM VCSH SCT035 BKN200
      TEMPO 0122/0201 -RA
     FM020200 15007KT P6SM SCT020 BKN140
     FM020800 16007KT P6SM SCT009 BKN015
     FM021600 18011KT P6SM BKN020=



000
FTUS44 KHGX 011720
TAFSGR
TAF
KSGR 011720Z 0118/0218 17012KT P6SM VCSH SCT035 BKN200
      TEMPO 0122/0201 -RA
     FM020200 15007KT P6SM SCT020 BKN140
     FM020800 16007KT P6SM SCT009 BKN015
     FM021600 18011KT P6SM BKN020=



000
FTUS44 KHGX 011720
TAFHOU
TAF
KHOU 011720Z 0118/0218 17012KT P6SM VCSH SCT035 BKN200
      TEMPO 0122/0201 -RA
     FM020200 15007KT P6SM SCT020 BKN140
     FM020800 16007KT P6SM SCT009 BKN015
     FM021600 18011KT P6SM BKN020=



000
FTUS44 KHGX 011720
TAFHOU
TAF
KHOU 011720Z 0118/0218 17012KT P6SM VCSH SCT035 BKN200
      TEMPO 0122/0201 -RA
     FM020200 15007KT P6SM SCT020 BKN140
     FM020800 16007KT P6SM SCT009 BKN015
     FM021600 18011KT P6SM BKN020=



000
FTUS44 KHGX 011720
TAFCLL
TAF
KCLL 011720Z 0118/0218 18010KT P6SM BKN035 BKN200
     FM012000 17015KT P6SM VCSH SCT035 BKN200
      TEMPO 0121/0201 -TSRA BKN030CB
     FM020200 16010KT P6SM SCT025 BKN140
     FM020700 16009KT P6SM BKN010
     FM021600 18010KT P6SM BKN020=



000
FTUS44 KHGX 011720
TAFLBX
TAF
KLBX 011720Z 0118/0218 17014KT P6SM VCSH SCT035 BKN200
      TEMPO 0122/0201 -RA
     FM020200 15007KT P6SM SCT020 BKN140
     FM020600 16007KT 5SM BR SCT006 BKN012
     FM021630 18011KT P6SM BKN020=



000
FTUS44 KHGX 011720
TAFSGR
TAF
KSGR 011720Z 0118/0218 17012KT P6SM VCSH SCT035 BKN200
      TEMPO 0122/0201 -RA
     FM020200 15007KT P6SM SCT020 BKN140
     FM020800 16007KT P6SM SCT009 BKN015
     FM021600 18011KT P6SM BKN020=



000
FTUS44 KHGX 011720
TAFIAH
TAF
KIAH 011720Z 0118/0224 18011KT P6SM VCSH SCT035 BKN070 BKN200
      TEMPO 0120/0124 TSRA BKN030CB
     FM020200 16008KT P6SM SCT025 BKN140
     FM020900 16006KT P6SM SCT009 BKN015
     FM021600 18011KT P6SM BKN020
     FM021900 18012G22KT P6SM SCT040 SCT250=



000
FTUS44 KHGX 011720
TAFGLS
TAF
KGLS 011720Z 0118/0218 14012KT P6SM VCSH SCT015 SCT020 BKN200
      TEMPO 0122/0201 -RA
     FM020300 15010KT 6SM BR BKN015
     FM020900 16010KT 4SM BR BKN008
     FM021700 18014KT 4SM BR BKN012=



000
FTUS44 KHGX 011720
TAFLBX
TAF
KLBX 011720Z 0118/0218 17014KT P6SM VCSH SCT035 BKN200
      TEMPO 0122/0201 -RA
     FM020200 15007KT P6SM SCT020 BKN140
     FM020600 16007KT 5SM BR SCT006 BKN012
     FM021630 18011KT P6SM BKN020=



000
FTUS44 KHGX 011627 AAB
TAFGLS
TAF AMD
KGLS 011627Z 0116/0212 14012KT P6SM VCSH SCT027 BKN060 BKN080
     FM020300 15010KT 6SM BR BKN015
     FM020900 16010KT 4SM BR BKN008=



000
FTUS44 KHGX 011627 AAB
TAFGLS
TAF AMD
KGLS 011627Z 0116/0212 14012KT P6SM VCSH SCT027 BKN060 BKN080
     FM020300 15010KT 6SM BR BKN015
     FM020900 16010KT 4SM BR BKN008=



000
FTUS44 KHGX 011521 AAB
TAFHOU
TAF AMD
KHOU 011521Z 0115/0212 16006KT P6SM SCT015 BKN250
     FM011700 16009G19KT P6SM VCSH SCT025 BKN035
     FM020200 16008KT P6SM SCT025 BKN140
     FM020900 16006KT P6SM SCT009 BKN015=



000
FTUS44 KHGX 011521 AAB
TAFIAH
TAF AMD
KIAH 011521Z 0115/0218 20005KT P6SM SCT017 BKN060 BKN200
     FM011700 16009G19KT P6SM VCSH SCT025 BKN035
      TEMPO 0120/0124 TSRA BKN030CB
     FM020200 16008KT P6SM SCT025 BKN140
     FM020900 16006KT P6SM SCT009 BKN015
     FM021500 18011KT P6SM BKN020=



000
FTUS44 KHGX 011521 AAB
TAFIAH
TAF AMD
KIAH 011521Z 0115/0218 20005KT P6SM SCT017 BKN060 BKN200
     FM011700 16009G19KT P6SM VCSH SCT025 BKN035
      TEMPO 0120/0124 TSRA BKN030CB
     FM020200 16008KT P6SM SCT025 BKN140
     FM020900 16006KT P6SM SCT009 BKN015
     FM021500 18011KT P6SM BKN020=



000
FTUS44 KHGX 011521 AAB
TAFHOU
TAF AMD
KHOU 011521Z 0115/0212 16006KT P6SM SCT015 BKN250
     FM011700 16009G19KT P6SM VCSH SCT025 BKN035
     FM020200 16008KT P6SM SCT025 BKN140
     FM020900 16006KT P6SM SCT009 BKN015=



000
FTUS44 KHGX 011411 AAA
TAFCXO
TAF AMD
KCXO 011411Z 0114/0212 16006KT P6SM BKN023
     FM011700 17012G20KT P6SM VCTS SCT025 BKN035CB
     FM012100 16011G19KT P6SM VCSH SCT035 BKN050
     FM020300 16007KT P6SM BKN025
     FM020900 16005KT P6SM BKN010 BKN015=



000
FTUS44 KHGX 011411 AAA
TAFHOU
TAF AMD
KHOU 011411Z 0114/0212 18004KT P6SM BKN006 BKN060 OVC250
     FM011500 17007KT P6SM BKN020
     FM011700 16013G20KT P6SM VCSH SCT025 BKN035
     FM012100 15013G20KT P6SM VCSH SCT035 BKN050
     FM020300 15006KT P6SM BKN025
     FM020900 16004KT P6SM BKN010 BKN015=



000
FTUS44 KHGX 011411 AAA
TAFCLL
TAF AMD
KCLL 011411Z 0114/0212 18007KT P6SM BKN026 OVC030
     FM011700 18012G21KT P6SM VCTS SCT025 BKN035CB
     FM012100 17013G22KT P6SM VCSH SCT035 BKN050
     FM020300 16010KT P6SM BKN025
     FM020900 16009KT P6SM BKN010 BKN015=



000
FTUS44 KHGX 011411 AAA
TAFUTS
TAF AMD
KUTS 011411Z 0114/0212 18007KT P6SM OVC024
     FM011700 17011G19KT P6SM VCTS SCT025 BKN035CB
     FM012100 17011G19KT P6SM VCSH SCT035 BKN050
     FM020300 16007KT P6SM BKN025
     FM020900 16006KT P6SM BKN010 BKN015=



000
FTUS44 KHGX 011411 AAA
TAFIAH
TAF AMD
KIAH 011411Z 0114/0218 19005KT P6SM BKN015 BKN200
     FM011500 17008KT P6SM BKN020
     FM011700 16013G20KT P6SM VCTS SCT025 BKN035CB
     FM012100 15013G20KT P6SM VCSH SCT035 BKN050
     FM020300 15008KT P6SM BKN025
     FM020900 16006KT P6SM BKN010 BKN015
     FM021500 17011KT P6SM BKN020=



000
FTUS44 KHGX 011411 AAA
TAFLBX
TAF AMD
KLBX 011411Z 0114/0212 19006KT P6SM OVC008
     FM011500 17008KT P6SM BKN015
     FM011700 16011KT P6SM VCSH SCT025 BKN035
     FM012100 15011KT P6SM VCSH SCT035 BKN050
     FM020300 15008KT P6SM BKN025
     FM020900 17005KT 5SM BR BKN008 BKN015=



000
FTUS44 KHGX 011411 AAA
TAFGLS
TAF AMD
KGLS 011411Z 0114/0212 13006KT P6SM FEW005 BKN015 OVC070
     FM011500 15008KT P6SM BKN020
     FM011700 13011KT P6SM VCSH SCT025 BKN035
     FM012100 13011KT P6SM VCSH SCT035 BKN050
     FM020300 15010KT P6SM BKN025
     FM020900 16010KT 5SM BR OVC015=



000
FTUS44 KHGX 011411 AAA
TAFSGR
TAF AMD
KSGR 011411Z 0114/0212 21004KT P6SM BKN009 OVC013
     FM011500 17007KT P6SM BKN020
     FM011700 16014G20KT P6SM VCSH SCT025 BKN035
     FM012100 15014G20KT P6SM VCSH SCT035 BKN050
     FM020300 15008KT P6SM BKN025
     FM020900 16005KT P6SM BKN010 BKN015=



000
FTUS44 KHGX 011411 AAA
TAFCXO
TAF AMD
KCXO 011411Z 0114/0212 16006KT P6SM BKN023
     FM011700 17012G20KT P6SM VCTS SCT025 BKN035CB
     FM012100 16011G19KT P6SM VCSH SCT035 BKN050
     FM020300 16007KT P6SM BKN025
     FM020900 16005KT P6SM BKN010 BKN015=



000
FTUS44 KHGX 011411 AAA
TAFSGR
TAF AMD
KSGR 011411Z 0114/0212 21004KT P6SM BKN009 OVC013
     FM011500 17007KT P6SM BKN020
     FM011700 16014G20KT P6SM VCSH SCT025 BKN035
     FM012100 15014G20KT P6SM VCSH SCT035 BKN050
     FM020300 15008KT P6SM BKN025
     FM020900 16005KT P6SM BKN010 BKN015=



000
FTUS44 KHGX 011411 AAA
TAFHOU
TAF AMD
KHOU 011411Z 0114/0212 18004KT P6SM BKN006 BKN060 OVC250
     FM011500 17007KT P6SM BKN020
     FM011700 16013G20KT P6SM VCSH SCT025 BKN035
     FM012100 15013G20KT P6SM VCSH SCT035 BKN050
     FM020300 15006KT P6SM BKN025
     FM020900 16004KT P6SM BKN010 BKN015=



000
FTUS44 KHGX 011411 AAA
TAFUTS
TAF AMD
KUTS 011411Z 0114/0212 18007KT P6SM OVC024
     FM011700 17011G19KT P6SM VCTS SCT025 BKN035CB
     FM012100 17011G19KT P6SM VCSH SCT035 BKN050
     FM020300 16007KT P6SM BKN025
     FM020900 16006KT P6SM BKN010 BKN015=



000
FTUS44 KHGX 011411 AAA
TAFCLL
TAF AMD
KCLL 011411Z 0114/0212 18007KT P6SM BKN026 OVC030
     FM011700 18012G21KT P6SM VCTS SCT025 BKN035CB
     FM012100 17013G22KT P6SM VCSH SCT035 BKN050
     FM020300 16010KT P6SM BKN025
     FM020900 16009KT P6SM BKN010 BKN015=



000
FTUS44 KHGX 011411 AAA
TAFIAH
TAF AMD
KIAH 011411Z 0114/0218 19005KT P6SM BKN015 BKN200
     FM011500 17008KT P6SM BKN020
     FM011700 16013G20KT P6SM VCTS SCT025 BKN035CB
     FM012100 15013G20KT P6SM VCSH SCT035 BKN050
     FM020300 15008KT P6SM BKN025
     FM020900 16006KT P6SM BKN010 BKN015
     FM021500 17011KT P6SM BKN020=



000
FTUS44 KHGX 011411 AAA
TAFGLS
TAF AMD
KGLS 011411Z 0114/0212 13006KT P6SM FEW005 BKN015 OVC070
     FM011500 15008KT P6SM BKN020
     FM011700 13011KT P6SM VCSH SCT025 BKN035
     FM012100 13011KT P6SM VCSH SCT035 BKN050
     FM020300 15010KT P6SM BKN025
     FM020900 16010KT 5SM BR OVC015=



000
FTUS44 KHGX 011411 AAA
TAFCXO
TAF AMD
KCXO 011411Z 0114/0212 16006KT P6SM BKN023
     FM011700 17012G20KT P6SM VCTS SCT025 BKN035CB
     FM012100 16011G19KT P6SM VCSH SCT035 BKN050
     FM020300 16007KT P6SM BKN025
     FM020900 16005KT P6SM BKN010 BKN015=



000
FTUS44 KHGX 011411 AAA
TAFUTS
TAF AMD
KUTS 011411Z 0114/0212 18007KT P6SM OVC024
     FM011700 17011G19KT P6SM VCTS SCT025 BKN035CB
     FM012100 17011G19KT P6SM VCSH SCT035 BKN050
     FM020300 16007KT P6SM BKN025
     FM020900 16006KT P6SM BKN010 BKN015=



000
FTUS44 KHGX 011411 AAA
TAFCLL
TAF AMD
KCLL 011411Z 0114/0212 18007KT P6SM BKN026 OVC030
     FM011700 18012G21KT P6SM VCTS SCT025 BKN035CB
     FM012100 17013G22KT P6SM VCSH SCT035 BKN050
     FM020300 16010KT P6SM BKN025
     FM020900 16009KT P6SM BKN010 BKN015=



000
FTUS44 KHGX 011411 AAA
TAFLBX
TAF AMD
KLBX 011411Z 0114/0212 19006KT P6SM OVC008
     FM011500 17008KT P6SM BKN015
     FM011700 16011KT P6SM VCSH SCT025 BKN035
     FM012100 15011KT P6SM VCSH SCT035 BKN050
     FM020300 15008KT P6SM BKN025
     FM020900 17005KT 5SM BR BKN008 BKN015=



000
FTUS44 KHGX 011121
TAFSGR
TAF
KSGR 011121Z 0112/0212 18006KT P6SM OVC006
      TEMPO 0112/0113 5SM BR
     FM011500 17007KT P6SM BKN020
     FM011700 16014G20KT P6SM VCSH SCT025 BKN035
     FM012100 15014G20KT P6SM VCSH SCT035 BKN050
     FM020300 15008KT P6SM BKN025
     FM020900 16005KT P6SM BKN010 BKN015=



000
FTUS44 KHGX 011121
TAFIAH
TAF
KIAH 011121Z 0112/0218 17006KT P6SM BKN009 BKN016
     FM011500 17006KT P6SM BKN020
     FM011700 16013G20KT P6SM VCTS SCT025 BKN035CB
     FM012100 15013G20KT P6SM VCSH SCT035 BKN050
     FM020300 15008KT P6SM BKN025
     FM020900 16006KT P6SM BKN010 BKN015
     FM021500 17011KT P6SM BKN020=



000
FTUS44 KHGX 011121
TAFLBX
TAF
KLBX 011121Z 0112/0212 18005KT 6SM BR SCT004 BKN010 OVC021
      TEMPO 0112/0113 2SM BR BKN004
     FM011500 17008KT P6SM BKN015
     FM011700 16011KT P6SM VCSH SCT025 BKN035
     FM012100 15011KT P6SM VCSH SCT035 BKN050
     FM020300 15008KT P6SM BKN025
     FM020900 17005KT 5SM BR BKN008 BKN015=



000
FTUS44 KHGX 011121
TAFCXO
TAF
KCXO 011121Z 0112/0212 17004KT P6SM OVC015
     FM011500 18006KT P6SM BKN020
     FM011700 17012G20KT P6SM VCTS SCT025 BKN035CB
     FM012100 16011G19KT P6SM VCSH SCT035 BKN050
     FM020300 16007KT P6SM BKN025
     FM020900 16005KT P6SM BKN010 BKN015=



000
FTUS44 KHGX 011121
TAFSGR
TAF
KSGR 011121Z 0112/0212 18006KT P6SM OVC006
      TEMPO 0112/0113 5SM BR
     FM011500 17007KT P6SM BKN020
     FM011700 16014G20KT P6SM VCSH SCT025 BKN035
     FM012100 15014G20KT P6SM VCSH SCT035 BKN050
     FM020300 15008KT P6SM BKN025
     FM020900 16005KT P6SM BKN010 BKN015=



000
FTUS44 KHGX 011121
TAFCLL
TAF
KCLL 011121Z 0112/0212 18006KT P6SM OVC011
     FM011500 18010KT P6SM BKN020
     FM011700 18012G21KT P6SM VCTS SCT025 BKN035CB
     FM012100 17013G22KT P6SM VCSH SCT035 BKN050
     FM020300 16010KT P6SM BKN025
     FM020900 16009KT P6SM BKN010 BKN015=



000
FTUS44 KHGX 011121
TAFHOU
TAF
KHOU 011121Z 0112/0212 18006KT P6SM BKN006 BKN180
     FM011500 17007KT P6SM BKN020
     FM011700 16013G20KT P6SM VCSH SCT025 BKN035
     FM012100 15013G20KT P6SM VCSH SCT035 BKN050
     FM020300 15006KT P6SM BKN025
     FM020900 16004KT P6SM BKN010 BKN015=



000
FTUS44 KHGX 011121
TAFUTS
TAF
KUTS 011121Z 0112/0212 18006KT P6SM OVC017
     FM011500 18008KT P6SM BKN020
     FM011700 17011G19KT P6SM VCTS SCT025 BKN035CB
     FM012100 17011G19KT P6SM VCSH SCT035 BKN050
     FM020300 16007KT P6SM BKN025
     FM020900 16006KT P6SM BKN010 BKN015=



000
FTUS44 KHGX 011121
TAFGLS
TAF
KGLS 011121Z 0112/0212 15006KT P6SM OVC018
     FM011500 15008KT P6SM BKN020
     FM011700 13011KT P6SM VCSH SCT025 BKN035
     FM012100 13011KT P6SM VCSH SCT035 BKN050
     FM020300 15010KT P6SM BKN025
     FM020900 16010KT 5SM BR OVC015=



000
FTUS44 KHGX 011121
TAFIAH
TAF
KIAH 011121Z 0112/0218 17006KT P6SM BKN009 BKN016
     FM011500 17006KT P6SM BKN020
     FM011700 16013G20KT P6SM VCTS SCT025 BKN035CB
     FM012100 15013G20KT P6SM VCSH SCT035 BKN050
     FM020300 15008KT P6SM BKN025
     FM020900 16006KT P6SM BKN010 BKN015
     FM021500 17011KT P6SM BKN020=



000
FTUS44 KHGX 011121
TAFLBX
TAF
KLBX 011121Z 0112/0212 18005KT 6SM BR SCT004 BKN010 OVC021
      TEMPO 0112/0113 2SM BR BKN004
     FM011500 17008KT P6SM BKN015
     FM011700 16011KT P6SM VCSH SCT025 BKN035
     FM012100 15011KT P6SM VCSH SCT035 BKN050
     FM020300 15008KT P6SM BKN025
     FM020900 17005KT 5SM BR BKN008 BKN015=



000
FTUS44 KHGX 011121
TAFUTS
TAF
KUTS 011121Z 0112/0212 18006KT P6SM OVC017
     FM011500 18008KT P6SM BKN020
     FM011700 17011G19KT P6SM VCTS SCT025 BKN035CB
     FM012100 17011G19KT P6SM VCSH SCT035 BKN050
     FM020300 16007KT P6SM BKN025
     FM020900 16006KT P6SM BKN010 BKN015=



000
FTUS44 KHGX 011121
TAFCLL
TAF
KCLL 011121Z 0112/0212 18006KT P6SM OVC011
     FM011500 18010KT P6SM BKN020
     FM011700 18012G21KT P6SM VCTS SCT025 BKN035CB
     FM012100 17013G22KT P6SM VCSH SCT035 BKN050
     FM020300 16010KT P6SM BKN025
     FM020900 16009KT P6SM BKN010 BKN015=



000
FTUS44 KHGX 011121
TAFCXO
TAF
KCXO 011121Z 0112/0212 17004KT P6SM OVC015
     FM011500 18006KT P6SM BKN020
     FM011700 17012G20KT P6SM VCTS SCT025 BKN035CB
     FM012100 16011G19KT P6SM VCSH SCT035 BKN050
     FM020300 16007KT P6SM BKN025
     FM020900 16005KT P6SM BKN010 BKN015=



000
FTUS44 KHGX 011121
TAFHOU
TAF
KHOU 011121Z 0112/0212 18006KT P6SM BKN006 BKN180
     FM011500 17007KT P6SM BKN020
     FM011700 16013G20KT P6SM VCSH SCT025 BKN035
     FM012100 15013G20KT P6SM VCSH SCT035 BKN050
     FM020300 15006KT P6SM BKN025
     FM020900 16004KT P6SM BKN010 BKN015=



000
FTUS44 KHGX 011121
TAFGLS
TAF
KGLS 011121Z 0112/0212 15006KT P6SM OVC018
     FM011500 15008KT P6SM BKN020
     FM011700 13011KT P6SM VCSH SCT025 BKN035
     FM012100 13011KT P6SM VCSH SCT035 BKN050
     FM020300 15010KT P6SM BKN025
     FM020900 16010KT 5SM BR OVC015=



000
FTUS44 KHGX 010945 AAA
TAFUTS
TAF AMD
KUTS 010945Z 0110/0206 18007KT P6SM SCT016 BKN030
      TEMPO 0111/0113 3SM BR BKN007 OVC016
     FM011500 18007KT P6SM BKN035
     FM012100 15010KT P6SM VCTS SCT040CB
     FM020300 17007KT P6SM SCT040 BKN150=



000
FTUS44 KHGX 010945 AAA
TAFUTS
TAF AMD
KUTS 010945Z 0110/0206 18007KT P6SM SCT016 BKN030
      TEMPO 0111/0113 3SM BR BKN007 OVC016
     FM011500 18007KT P6SM BKN035
     FM012100 15010KT P6SM VCTS SCT040CB
     FM020300 17007KT P6SM SCT040 BKN150=



000
FTUS44 KHGX 010945 AAA
TAFUTS
TAF AMD
KUTS 010945Z 0110/0206 18007KT P6SM SCT016 BKN030
      TEMPO 0111/0113 3SM BR BKN007 OVC016
     FM011500 18007KT P6SM BKN035
     FM012100 15010KT P6SM VCTS SCT040CB
     FM020300 17007KT P6SM SCT040 BKN150=



000
FTUS44 KHGX 010945 AAA
TAFUTS
TAF AMD
KUTS 010945Z 0110/0206 18007KT P6SM SCT016 BKN030
      TEMPO 0111/0113 3SM BR BKN007 OVC016
     FM011500 18007KT P6SM BKN035
     FM012100 15010KT P6SM VCTS SCT040CB
     FM020300 17007KT P6SM SCT040 BKN150=



000
FTUS44 KHGX 010903 AAA
TAFHOU
TAF AMD
KHOU 010903Z 0109/0206 16004KT P6SM BKN010 BKN180
      TEMPO 0111/0114 3SM BR BKN009 BKN030
     FM011600 16007KT P6SM SCT020 OVC150
     FM012100 16013KT P6SM VCSH BKN050
     FM020300 15008KT P6SM BKN025=



000
FTUS44 KHGX 010903 AAA
TAFHOU
TAF AMD
KHOU 010903Z 0109/0206 16004KT P6SM BKN010 BKN180
      TEMPO 0111/0114 3SM BR BKN009 BKN030
     FM011600 16007KT P6SM SCT020 OVC150
     FM012100 16013KT P6SM VCSH BKN050
     FM020300 15008KT P6SM BKN025=



000
FTUS44 KHGX 010903 AAA
TAFHOU
TAF AMD
KHOU 010903Z 0109/0206 16004KT P6SM BKN010 BKN180
      TEMPO 0111/0114 3SM BR BKN009 BKN030
     FM011600 16007KT P6SM SCT020 OVC150
     FM012100 16013KT P6SM VCSH BKN050
     FM020300 15008KT P6SM BKN025=



000
FTUS44 KHGX 010903 AAA
TAFHOU
TAF AMD
KHOU 010903Z 0109/0206 16004KT P6SM BKN010 BKN180
      TEMPO 0111/0114 3SM BR BKN009 BKN030
     FM011600 16007KT P6SM SCT020 OVC150
     FM012100 16013KT P6SM VCSH BKN050
     FM020300 15008KT P6SM BKN025=



000
FTUS44 KHGX 010901 AAA
TAFIAH
TAF AMD
KIAH 010901Z 0109/0212 17006KT P6SM BKN009 BKN030
     FM011700 17007KT P6SM SCT020 OVC150
     FM012100 15013KT P6SM VCSH BKN050
     FM020300 15008KT P6SM BKN025
     FM020900 16006KT P6SM BKN015=



000
FTUS44 KHGX 010901 AAA
TAFIAH
TAF AMD
KIAH 010901Z 0109/0212 17006KT P6SM BKN009 BKN030
     FM011700 17007KT P6SM SCT020 OVC150
     FM012100 15013KT P6SM VCSH BKN050
     FM020300 15008KT P6SM BKN025
     FM020900 16006KT P6SM BKN015=



000
FTUS44 KHGX 010522
TAFLBX
TAF
KLBX 010522Z 0106/0206 17005KT 6SM BR SCT010 BKN025
      TEMPO 0109/0113 1SM BR
     FM011300 16005KT 5SM BR SCT007 BKN015
     FM011500 16009KT P6SM OVC015
     FM011900 16012G18KT P6SM SCT020 BKN100
     FM020100 15011KT P6SM BKN015=



000
FTUS44 KHGX 010522
TAFCXO
TAF
KCXO 010522Z 0106/0206 20011KT P6SM BKN012 BKN150
     FM010900 16004KT P6SM BKN007 OVC012
      TEMPO 0109/0113 3SM BR
     FM011500 18007KT P6SM OVC035
     FM012100 15013KT P6SM VCSH BKN040
     FM020300 17007KT P6SM SCT040 BKN150=



000
FTUS44 KHGX 010522
TAFCLL
TAF
KCLL 010522Z 0106/0206 18005KT P6SM SCT007 OVC012
      TEMPO 0111/0113 3SM BR BKN005
     FM011300 16008KT 4SM BR SCT007 OVC012
     FM011600 18011G17KT P6SM SCT025 OVC040
     FM012100 15013G22KT P6SM VCTS SCT040CB
     FM020300 15010KT P6SM SCT040 BKN150=



000
FTUS44 KHGX 010522
TAFSGR
TAF
KSGR 010522Z 0106/0206 18006KT 6SM BR SCT007 OVC012
      TEMPO 0109/0113 2SM BR
     FM011500 16008KT P6SM SCT030 OVC150
     FM012100 16013KT P6SM VCSH BKN050
     FM020300 15008KT P6SM BKN025=



000
FTUS44 KHGX 010522
TAFUTS
TAF
KUTS 010522Z 0106/0206 19011KT P6SM SCT012 BKN150
     FM010900 17004KT P6SM BKN007 OVC012
      TEMPO 0111/0113 3SM BR OVC005
     FM011500 18007KT P6SM BKN035
     FM012100 15010KT P6SM VCTS SCT040CB
     FM020300 17007KT P6SM SCT040 BKN150=



000
FTUS44 KHGX 010522
TAFIAH
TAF
KIAH 010522Z 0106/0212 18004KT P6SM SCT007 OVC012
     FM011700 17007KT P6SM SCT020 OVC150
     FM012100 15013KT P6SM VCSH BKN050
     FM020300 15008KT P6SM BKN025
     FM020900 16006KT P6SM BKN015=



000
FTUS44 KHGX 010522
TAFUTS
TAF
KUTS 010522Z 0106/0206 19011KT P6SM SCT012 BKN150
     FM010900 17004KT P6SM BKN007 OVC012
      TEMPO 0111/0113 3SM BR OVC005
     FM011500 18007KT P6SM BKN035
     FM012100 15010KT P6SM VCTS SCT040CB
     FM020300 17007KT P6SM SCT040 BKN150=



000
FTUS44 KHGX 010522
TAFHOU
TAF
KHOU 010522Z 0106/0206 19007KT P6SM BKN007 OVC022
     FM010900 19004KT 5SM BR BKN007 OVC012
      TEMPO 0111/0113 1SM BR
     FM011600 16007KT P6SM SCT020 OVC150
     FM012100 16013KT P6SM VCSH BKN050
     FM020300 15008KT P6SM BKN025=



000
FTUS44 KHGX 010522
TAFGLS
TAF
KGLS 010522Z 0106/0206 17009KT P6SM SCT020 SCT250
     FM011000 15008KT P6SM SCT015 BKN025
     FM011500 16009KT P6SM SCT020 BKN150
     FM011900 16012KT P6SM SCT020 BKN100
     FM020100 15011KT P6SM BKN015=



000
FTUS44 KHGX 010522
TAFHOU
TAF
KHOU 010522Z 0106/0206 19007KT P6SM BKN007 OVC022
     FM010900 19004KT 5SM BR BKN007 OVC012
      TEMPO 0111/0113 1SM BR
     FM011600 16007KT P6SM SCT020 OVC150
     FM012100 16013KT P6SM VCSH BKN050
     FM020300 15008KT P6SM BKN025=



000
FTUS44 KHGX 010522
TAFLBX
TAF
KLBX 010522Z 0106/0206 17005KT 6SM BR SCT010 BKN025
      TEMPO 0109/0113 1SM BR
     FM011300 16005KT 5SM BR SCT007 BKN015
     FM011500 16009KT P6SM OVC015
     FM011900 16012G18KT P6SM SCT020 BKN100
     FM020100 15011KT P6SM BKN015=



000
FTUS44 KHGX 010522
TAFIAH
TAF
KIAH 010522Z 0106/0212 18004KT P6SM SCT007 OVC012
     FM011700 17007KT P6SM SCT020 OVC150
     FM012100 15013KT P6SM VCSH BKN050
     FM020300 15008KT P6SM BKN025
     FM020900 16006KT P6SM BKN015=



000
FTUS44 KHGX 010522
TAFSGR
TAF
KSGR 010522Z 0106/0206 18006KT 6SM BR SCT007 OVC012
      TEMPO 0109/0113 2SM BR
     FM011500 16008KT P6SM SCT030 OVC150
     FM012100 16013KT P6SM VCSH BKN050
     FM020300 15008KT P6SM BKN025=



000
FTUS44 KHGX 010522
TAFCXO
TAF
KCXO 010522Z 0106/0206 20011KT P6SM BKN012 BKN150
     FM010900 16004KT P6SM BKN007 OVC012
      TEMPO 0109/0113 3SM BR
     FM011500 18007KT P6SM OVC035
     FM012100 15013KT P6SM VCSH BKN040
     FM020300 17007KT P6SM SCT040 BKN150=



000
FTUS44 KHGX 010522
TAFGLS
TAF
KGLS 010522Z 0106/0206 17009KT P6SM SCT020 SCT250
     FM011000 15008KT P6SM SCT015 BKN025
     FM011500 16009KT P6SM SCT020 BKN150
     FM011900 16012KT P6SM SCT020 BKN100
     FM020100 15011KT P6SM BKN015=



000
FTUS44 KHGX 010522
TAFCLL
TAF
KCLL 010522Z 0106/0206 18005KT P6SM SCT007 OVC012
      TEMPO 0111/0113 3SM BR BKN005
     FM011300 16008KT 4SM BR SCT007 OVC012
     FM011600 18011G17KT P6SM SCT025 OVC040
     FM012100 15013G22KT P6SM VCTS SCT040CB
     FM020300 15010KT P6SM SCT040 BKN150=



000
FTUS44 KHGX 010351 AAC
TAFSGR
TAF AMD
KSGR 010351Z 0104/0124 18008KT P6SM BKN012 BKN020
     FM010600 16006KT 6SM BR SCT007 OVC012
      TEMPO 0109/0113 2SM BR
     FM011500 16008KT P6SM SCT030 OVC150
     FM012100 16013KT P6SM VCSH BKN050=



000
FTUS44 KHGX 010351 AAC
TAFSGR
TAF AMD
KSGR 010351Z 0104/0124 18008KT P6SM BKN012 BKN020
     FM010600 16006KT 6SM BR SCT007 OVC012
      TEMPO 0109/0113 2SM BR
     FM011500 16008KT P6SM SCT030 OVC150
     FM012100 16013KT P6SM VCSH BKN050=



000
FTUS44 KHGX 010337 AAB
TAFSGR
TAF AMD
KSGR 010337Z 0104/0124 18008KT P6SM SCT012 BKN020
     FM010600 16006KT 6SM BR SCT007 OVC012
      TEMPO 0109/0113 2SM BR
     FM011500 16008KT P6SM SCT030 OVC150
     FM012100 16013KT P6SM VCSH BKN050=



000
FTUS44 KHGX 010337 AAB
TAFSGR
TAF AMD
KSGR 010337Z 0104/0124 18008KT P6SM SCT012 BKN020
     FM010600 16006KT 6SM BR SCT007 OVC012
      TEMPO 0109/0113 2SM BR
     FM011500 16008KT P6SM SCT030 OVC150
     FM012100 16013KT P6SM VCSH BKN050=



000
FTUS44 KHGX 010337 AAB
TAFSGR
TAF AMD
KSGR 010337Z 0104/0124 18008KT P6SM SCT012 BKN020
     FM010600 16006KT 6SM BR SCT007 OVC012
      TEMPO 0109/0113 2SM BR
     FM011500 16008KT P6SM SCT030 OVC150
     FM012100 16013KT P6SM VCSH BKN050=



000
FTUS44 KHGX 010316 AAB
TAFHOU
TAF AMD
KHOU 010316Z 0103/0124 18007KT P6SM SCT025 OVC180
     FM010600 16003KT 4SM BR SCT007 OVC012
      TEMPO 0109/0113 1SM BR
     FM011500 16007KT P6SM SCT030 OVC150
     FM012100 16013KT P6SM VCSH BKN050=



000
FTUS44 KHGX 010316 AAA
TAFUTS
TAF AMD
KUTS 010316Z 0103/0124 19007KT P6SM SCT015 BKN150
     FM010900 17004KT P6SM BKN007 OVC015
      TEMPO 0111/0113 3SM BR OVC005
     FM011500 18007KT P6SM BKN035
     FM012100 15010KT P6SM VCSH BKN040=



000
FTUS44 KHGX 010316 AAA
TAFCXO
TAF AMD
KCXO 010316Z 0103/0124 20007KT P6SM SCT015 BKN150
     FM010900 16004KT P6SM BKN007 OVC015
      TEMPO 0109/0113 1/2SM FG
     FM011500 18007KT P6SM OVC035
     FM012100 15013KT P6SM VCSH BKN040=



000
FTUS44 KHGX 010316 AAA
TAFCLL
TAF AMD
KCLL 010316Z 0103/0124 18008KT P6SM SCT015 BKN150
     FM010600 18005KT P6SM SCT007 OVC015
      TEMPO 0111/0113 3SM BR BKN005
     FM011300 16008KT 4SM BR SCT007 OVC012
     FM011600 18011G17KT P6SM SCT025 OVC040
     FM012100 15013G22KT P6SM VCTS BKN040CB=



000
FTUS44 KHGX 010316 AAB
TAFHOU
TAF AMD
KHOU 010316Z 0103/0124 18007KT P6SM SCT025 OVC180
     FM010600 16003KT 4SM BR SCT007 OVC012
      TEMPO 0109/0113 1SM BR
     FM011500 16007KT P6SM SCT030 OVC150
     FM012100 16013KT P6SM VCSH BKN050=



000
FTUS44 KHGX 010316 AAB
TAFLBX
TAF AMD
KLBX 010316Z 0103/0124 17009KT P6SM FEW010 SCT025
     FM010600 17005KT 3SM BR SCT010 BKN025
      TEMPO 0109/0113 1/2SM FG
     FM011300 16005KT 5SM BR SCT007 BKN015
     FM011500 16009KT P6SM OVC015
     FM011900 16012G18KT P6SM SCT020 BKN100=



000
FTUS44 KHGX 010316 AAA
TAFIAH
TAF AMD
KIAH 010316Z 0103/0206 18006KT P6SM BKN015 OVC180
     FM010600 16004KT P6SM SCT007 OVC015
     FM011600 17007KT P6SM SCT030 OVC150
     FM012100 15013KT P6SM VCSH BKN050
     FM020300 15008KT P6SM BKN035=



000
FTUS44 KHGX 010316 AAA
TAFCXO
TAF AMD
KCXO 010316Z 0103/0124 20007KT P6SM SCT015 BKN150
     FM010900 16004KT P6SM BKN007 OVC015
      TEMPO 0109/0113 1/2SM FG
     FM011500 18007KT P6SM OVC035
     FM012100 15013KT P6SM VCSH BKN040=



000
FTUS44 KHGX 010316 AAA
TAFGLS
TAF AMD
KGLS 010316Z 0103/0124 17009KT P6SM SCT020 SCT250
     FM011000 15008KT P6SM SCT015 BKN025
     FM011500 16009KT P6SM SCT020 BKN150
     FM011900 16012KT P6SM SCT020 BKN100=



000
FTUS44 KHGX 010316 AAB
TAFHOU
TAF AMD
KHOU 010316Z 0103/0124 18007KT P6SM SCT025 OVC180
     FM010600 16003KT 4SM BR SCT007 OVC012
      TEMPO 0109/0113 1SM BR
     FM011500 16007KT P6SM SCT030 OVC150
     FM012100 16013KT P6SM VCSH BKN050=



000
FTUS44 KHGX 010316 AAA
TAFSGR
TAF AMD
KSGR 010316Z 0103/0124 18008KT P6SM SCT012
     FM010600 16006KT 6SM BR SCT007 OVC012
      TEMPO 0109/0113 2SM BR
     FM011500 16008KT P6SM SCT030 OVC150
     FM012100 16013KT P6SM VCSH BKN050=



000
FTUS44 KHGX 010316 AAA
TAFIAH
TAF AMD
KIAH 010316Z 0103/0206 18006KT P6SM BKN015 OVC180
     FM010600 16004KT P6SM SCT007 OVC015
     FM011600 17007KT P6SM SCT030 OVC150
     FM012100 15013KT P6SM VCSH BKN050
     FM020300 15008KT P6SM BKN035=



000
FTUS44 KHGX 010316 AAA
TAFSGR
TAF AMD
KSGR 010316Z 0103/0124 18008KT P6SM SCT012
     FM010600 16006KT 6SM BR SCT007 OVC012
      TEMPO 0109/0113 2SM BR
     FM011500 16008KT P6SM SCT030 OVC150
     FM012100 16013KT P6SM VCSH BKN050=



000
FTUS44 KHGX 010316 AAA
TAFIAH
TAF AMD
KIAH 010316Z 0103/0206 18006KT P6SM BKN015 OVC180
     FM010600 16004KT P6SM SCT007 OVC015
     FM011600 17007KT P6SM SCT030 OVC150
     FM012100 15013KT P6SM VCSH BKN050
     FM020300 15008KT P6SM BKN035=



000
FTUS44 KHGX 010316 AAA
TAFGLS
TAF AMD
KGLS 010316Z 0103/0124 17009KT P6SM SCT020 SCT250
     FM011000 15008KT P6SM SCT015 BKN025
     FM011500 16009KT P6SM SCT020 BKN150
     FM011900 16012KT P6SM SCT020 BKN100=



000
FTUS44 KHGX 010316 AAB
TAFLBX
TAF AMD
KLBX 010316Z 0103/0124 17009KT P6SM FEW010 SCT025
     FM010600 17005KT 3SM BR SCT010 BKN025
      TEMPO 0109/0113 1/2SM FG
     FM011300 16005KT 5SM BR SCT007 BKN015
     FM011500 16009KT P6SM OVC015
     FM011900 16012G18KT P6SM SCT020 BKN100=



000
FTUS44 KHGX 010316 AAA
TAFUTS
TAF AMD
KUTS 010316Z 0103/0124 19007KT P6SM SCT015 BKN150
     FM010900 17004KT P6SM BKN007 OVC015
      TEMPO 0111/0113 3SM BR OVC005
     FM011500 18007KT P6SM BKN035
     FM012100 15010KT P6SM VCSH BKN040=



000
FTUS44 KHGX 010316 AAA
TAFCLL
TAF AMD
KCLL 010316Z 0103/0124 18008KT P6SM SCT015 BKN150
     FM010600 18005KT P6SM SCT007 OVC015
      TEMPO 0111/0113 3SM BR BKN005
     FM011300 16008KT 4SM BR SCT007 OVC012
     FM011600 18011G17KT P6SM SCT025 OVC040
     FM012100 15013G22KT P6SM VCTS BKN040CB=



000
FTUS44 KHGX 010316 AAA
TAFCLL
TAF AMD
KCLL 010316Z 0103/0124 18008KT P6SM SCT015 BKN150
     FM010600 18005KT P6SM SCT007 OVC015
      TEMPO 0111/0113 3SM BR BKN005
     FM011300 16008KT 4SM BR SCT007 OVC012
     FM011600 18011G17KT P6SM SCT025 OVC040
     FM012100 15013G22KT P6SM VCTS BKN040CB=



000
FTUS44 KHGX 010316 AAA
TAFSGR
TAF AMD
KSGR 010316Z 0103/0124 18008KT P6SM SCT012
     FM010600 16006KT 6SM BR SCT007 OVC012
      TEMPO 0109/0113 2SM BR
     FM011500 16008KT P6SM SCT030 OVC150
     FM012100 16013KT P6SM VCSH BKN050=



000
FTUS44 KHGX 010316 AAB
TAFHOU
TAF AMD
KHOU 010316Z 0103/0124 18007KT P6SM SCT025 OVC180
     FM010600 16003KT 4SM BR SCT007 OVC012
      TEMPO 0109/0113 1SM BR
     FM011500 16007KT P6SM SCT030 OVC150
     FM012100 16013KT P6SM VCSH BKN050=



000
FTUS44 KHGX 010316 AAA
TAFGLS
TAF AMD
KGLS 010316Z 0103/0124 17009KT P6SM SCT020 SCT250
     FM011000 15008KT P6SM SCT015 BKN025
     FM011500 16009KT P6SM SCT020 BKN150
     FM011900 16012KT P6SM SCT020 BKN100=



000
FTUS44 KHGX 010316 AAA
TAFUTS
TAF AMD
KUTS 010316Z 0103/0124 19007KT P6SM SCT015 BKN150
     FM010900 17004KT P6SM BKN007 OVC015
      TEMPO 0111/0113 3SM BR OVC005
     FM011500 18007KT P6SM BKN035
     FM012100 15010KT P6SM VCSH BKN040=



000
FTUS44 KHGX 010316 AAA
TAFCXO
TAF AMD
KCXO 010316Z 0103/0124 20007KT P6SM SCT015 BKN150
     FM010900 16004KT P6SM BKN007 OVC015
      TEMPO 0109/0113 1/2SM FG
     FM011500 18007KT P6SM OVC035
     FM012100 15013KT P6SM VCSH BKN040=



000
FTUS44 KHGX 010316 AAB
TAFLBX
TAF AMD
KLBX 010316Z 0103/0124 17009KT P6SM FEW010 SCT025
     FM010600 17005KT 3SM BR SCT010 BKN025
      TEMPO 0109/0113 1/2SM FG
     FM011300 16005KT 5SM BR SCT007 BKN015
     FM011500 16009KT P6SM OVC015
     FM011900 16012G18KT P6SM SCT020 BKN100=



000
FTUS44 KHGX 010128 AAA
TAFLBX
TAF AMD
KLBX 010128Z 0101/0124 18008KT P6SM BKN025
     FM010800 17005KT 3SM BR SCT015 BKN025
      TEMPO 0109/0113 1/2SM FG
     FM011300 16005KT 5SM BR SCT007 BKN015
     FM011500 16009KT P6SM OVC015
     FM011900 16012G18KT P6SM SCT020 BKN100=



000
FTUS44 KHGX 010128 AAA
TAFLBX
TAF AMD
KLBX 010128Z 0101/0124 18008KT P6SM BKN025
     FM010800 17005KT 3SM BR SCT015 BKN025
      TEMPO 0109/0113 1/2SM FG
     FM011300 16005KT 5SM BR SCT007 BKN015
     FM011500 16009KT P6SM OVC015
     FM011900 16012G18KT P6SM SCT020 BKN100=



000
FTUS44 KHGX 010128 AAA
TAFLBX
TAF AMD
KLBX 010128Z 0101/0124 18008KT P6SM BKN025
     FM010800 17005KT 3SM BR SCT015 BKN025
      TEMPO 0109/0113 1/2SM FG
     FM011300 16005KT 5SM BR SCT007 BKN015
     FM011500 16009KT P6SM OVC015
     FM011900 16012G18KT P6SM SCT020 BKN100=



000
FTUS44 KHGX 010128 AAA
TAFLBX
TAF AMD
KLBX 010128Z 0101/0124 18008KT P6SM BKN025
     FM010800 17005KT 3SM BR SCT015 BKN025
      TEMPO 0109/0113 1/2SM FG
     FM011300 16005KT 5SM BR SCT007 BKN015
     FM011500 16009KT P6SM OVC015
     FM011900 16012G18KT P6SM SCT020 BKN100=



000
FTUS44 KHGX 010002 AAA
TAFHOU
TAF AMD
KHOU 010002Z 0100/0124 18011KT P6SM SCT050 BKN250
     FM010900 16003KT 4SM BR SCT007 OVC012
      TEMPO 0109/0113 1SM BR
     FM011500 16007KT P6SM SCT030 OVC150
     FM012100 16013KT P6SM VCSH BKN050=



000
FTUS44 KHGX 010002 AAA
TAFHOU
TAF AMD
KHOU 010002Z 0100/0124 18011KT P6SM SCT050 BKN250
     FM010900 16003KT 4SM BR SCT007 OVC012
      TEMPO 0109/0113 1SM BR
     FM011500 16007KT P6SM SCT030 OVC150
     FM012100 16013KT P6SM VCSH BKN050=



000
FTUS44 KHGX 010002 AAA
TAFHOU
TAF AMD
KHOU 010002Z 0100/0124 18011KT P6SM SCT050 BKN250
     FM010900 16003KT 4SM BR SCT007 OVC012
      TEMPO 0109/0113 1SM BR
     FM011500 16007KT P6SM SCT030 OVC150
     FM012100 16013KT P6SM VCSH BKN050=



000
FTUS44 KHGX 010002 AAA
TAFHOU
TAF AMD
KHOU 010002Z 0100/0124 18011KT P6SM SCT050 BKN250
     FM010900 16003KT 4SM BR SCT007 OVC012
      TEMPO 0109/0113 1SM BR
     FM011500 16007KT P6SM SCT030 OVC150
     FM012100 16013KT P6SM VCSH BKN050=



000
FTUS44 KHGX 312354 CCA
TAFCXO
TAF COR
KCXO 312354Z 0100/0124 20007KT P6SM SCT035
     FM010400 16005KT P6SM SCT025 OVC250
     FM010900 16004KT P6SM BKN007 OVC015
      TEMPO 0109/0113 1/2SM FG
     FM011500 18007KT P6SM OVC035
     FM012100 15013KT P6SM VCSH BKN040=



000
FTUS44 KHGX 312354 CCA
TAFCXO
TAF COR
KCXO 312354Z 0100/0124 20007KT P6SM SCT035
     FM010400 16005KT P6SM SCT025 OVC250
     FM010900 16004KT P6SM BKN007 OVC015
      TEMPO 0109/0113 1/2SM FG
     FM011500 18007KT P6SM OVC035
     FM012100 15013KT P6SM VCSH BKN040=



000
FTUS44 KHGX 312354 CCA
TAFCXO
TAF COR
KCXO 312354Z 0100/0124 20007KT P6SM SCT035
     FM010400 16005KT P6SM SCT025 OVC250
     FM010900 16004KT P6SM BKN007 OVC015
      TEMPO 0109/0113 1/2SM FG
     FM011500 18007KT P6SM OVC035
     FM012100 15013KT P6SM VCSH BKN040=



000
FTUS44 KHGX 312354 CCA
TAFCXO
TAF COR
KCXO 312354Z 0100/0124 20007KT P6SM SCT035
     FM010400 16005KT P6SM SCT025 OVC250
     FM010900 16004KT P6SM BKN007 OVC015
      TEMPO 0109/0113 1/2SM FG
     FM011500 18007KT P6SM OVC035
     FM012100 15013KT P6SM VCSH BKN040=



000
FTUS44 KHGX 312331
TAFSGR
TAF
KSGR 312331Z 0100/0124 19011KT P6SM FEW040
     FM010900 16006KT 6SM BR SCT007 OVC012
      TEMPO 0109/0113 2SM BR
     FM011500 16008KT P6SM SCT030 OVC150
     FM012100 16013KT P6SM VCSH BKN050=



000
FTUS44 KHGX 312331
TAFIAH
TAF
KIAH 312331Z 0100/0206 19008KT P6SM SCT050 BKN250
     FM010300 17006KT P6SM SCT025 OVC250
     FM010900 16004KT P6SM SCT007 OVC015
     FM011600 17007KT P6SM SCT030 OVC150
     FM012100 15013KT P6SM VCSH BKN050
     FM020300 15008KT P6SM BKN035=



000
FTUS44 KHGX 312331
TAFUTS
TAF
KUTS 312331Z 0100/0124 20009KT P6SM FEW040
     FM010400 17005KT P6SM SCT025 OVC250
     FM010900 17004KT P6SM BKN007 OVC015
      TEMPO 0111/0113 3SM BR OVC005
     FM011500 18007KT P6SM BKN035
     FM012100 15010KT P6SM VCSH BKN040=



000
FTUS44 KHGX 312331
TAFIAH
TAF
KIAH 312331Z 0100/0206 19008KT P6SM SCT050 BKN250
     FM010300 17006KT P6SM SCT025 OVC250
     FM010900 16004KT P6SM SCT007 OVC015
     FM011600 17007KT P6SM SCT030 OVC150
     FM012100 15013KT P6SM VCSH BKN050
     FM020300 15008KT P6SM BKN035=



000
FTUS44 KHGX 312331
TAFSGR
TAF
KSGR 312331Z 0100/0124 19011KT P6SM FEW040
     FM010900 16006KT 6SM BR SCT007 OVC012
      TEMPO 0109/0113 2SM BR
     FM011500 16008KT P6SM SCT030 OVC150
     FM012100 16013KT P6SM VCSH BKN050=



000
FTUS44 KHGX 312331
TAFCLL
TAF
KCLL 312331Z 0100/0124 19008KT P6SM SCT025 BKN150
     FM010900 18005KT P6SM BKN007 OVC015
      TEMPO 0111/0113 3SM BR OVC005
     FM011300 16008KT 4SM BR BKN007 OVC012
     FM011600 18011G17KT P6SM SCT025 OVC040
     FM012100 15013G22KT P6SM VCTS BKN040CB=



000
FTUS44 KHGX 312331
TAFHOU
TAF
KHOU 312331Z 0100/0124 23011KT P6SM SCT050 BKN250
     FM010900 16003KT 4SM BR SCT007 OVC012
      TEMPO 0109/0113 1SM BR
     FM011500 16007KT P6SM SCT030 OVC150
     FM012100 16013KT P6SM VCSH BKN050=



000
FTUS44 KHGX 312331
TAFGLS
TAF
KGLS 312331Z 0100/0124 19012KT P6SM SCT020 SCT250
     FM011000 15008KT P6SM SCT015 BKN025
     FM011500 16009KT P6SM SCT020 BKN150
     FM011900 16012KT P6SM SCT020 BKN100=



000
FTUS44 KHGX 312331
TAFCXO
TAF
KCXO 312331Z 0100/0124 20007KT P6SM SCT035
     FM010400 16005KT P6SM SCT025 OVC250
     FM010900 16004KT P6SM BKN007 OVC015
      TEMPO 0109/0113 1/2SM FG
     FM011500 18007KT P6SM OVC035
     FM011900 15013KT P6SM VCSH BKN040=



000
FTUS44 KHGX 312331
TAFLBX
TAF
KLBX 312331Z 0100/0124 19011KT P6SM FEW030 SCT040
     FM010800 17005KT 3SM BR SCT025 OVC250
      TEMPO 0109/0113 1/2SM FG
     FM011300 16005KT 5SM BR SCT007 BKN015
     FM011500 16009KT P6SM OVC015
     FM011900 16012G18KT P6SM SCT020 BKN100=



000
FTUS44 KHGX 312331
TAFLBX
TAF
KLBX 312331Z 0100/0124 19011KT P6SM FEW030 SCT040
     FM010800 17005KT 3SM BR SCT025 OVC250
      TEMPO 0109/0113 1/2SM FG
     FM011300 16005KT 5SM BR SCT007 BKN015
     FM011500 16009KT P6SM OVC015
     FM011900 16012G18KT P6SM SCT020 BKN100=



000
FTUS44 KHGX 312331
TAFCLL
TAF
KCLL 312331Z 0100/0124 19008KT P6SM SCT025 BKN150
     FM010900 18005KT P6SM BKN007 OVC015
      TEMPO 0111/0113 3SM BR OVC005
     FM011300 16008KT 4SM BR BKN007 OVC012
     FM011600 18011G17KT P6SM SCT025 OVC040
     FM012100 15013G22KT P6SM VCTS BKN040CB=



000
FTUS44 KHGX 312331
TAFCXO
TAF
KCXO 312331Z 0100/0124 20007KT P6SM SCT035
     FM010400 16005KT P6SM SCT025 OVC250
     FM010900 16004KT P6SM BKN007 OVC015
      TEMPO 0109/0113 1/2SM FG
     FM011500 18007KT P6SM OVC035
     FM011900 15013KT P6SM VCSH BKN040=



000
FTUS44 KHGX 312331
TAFGLS
TAF
KGLS 312331Z 0100/0124 19012KT P6SM SCT020 SCT250
     FM011000 15008KT P6SM SCT015 BKN025
     FM011500 16009KT P6SM SCT020 BKN150
     FM011900 16012KT P6SM SCT020 BKN100=



000
FTUS44 KHGX 312331
TAFUTS
TAF
KUTS 312331Z 0100/0124 20009KT P6SM FEW040
     FM010400 17005KT P6SM SCT025 OVC250
     FM010900 17004KT P6SM BKN007 OVC015
      TEMPO 0111/0113 3SM BR OVC005
     FM011500 18007KT P6SM BKN035
     FM012100 15010KT P6SM VCSH BKN040=



000
FTUS44 KHGX 312331
TAFHOU
TAF
KHOU 312331Z 0100/0124 23011KT P6SM SCT050 BKN250
     FM010900 16003KT 4SM BR SCT007 OVC012
      TEMPO 0109/0113 1SM BR
     FM011500 16007KT P6SM SCT030 OVC150
     FM012100 16013KT P6SM VCSH BKN050=



000
FTUS44 KHGX 312108 AAA
TAFIAH
TAF AMD
KIAH 312108Z 3121/0124 19008KT P6SM SCT050 BKN250
     FM010300 17006KT P6SM SCT025 OVC250
     FM010900 16004KT P6SM SCT007 OVC015
     FM011600 17007KT P6SM SCT030 OVC150
     FM012100 16013KT P6SM VCSH BKN035=



000
FTUS44 KHGX 312108 AAA
TAFHOU
TAF AMD
KHOU 312108Z 3121/0118 23011KT P6SM SCT050 BKN250
     FM010900 16003KT 4SM BR SCT007 OVC012
      TEMPO 0109/0113 1SM BR
     FM011500 16007KT P6SM SCT030 OVC150=



000
FTUS44 KHGX 312108 AAA
TAFIAH
TAF AMD
KIAH 312108Z 3121/0124 19008KT P6SM SCT050 BKN250
     FM010300 17006KT P6SM SCT025 OVC250
     FM010900 16004KT P6SM SCT007 OVC015
     FM011600 17007KT P6SM SCT030 OVC150
     FM012100 16013KT P6SM VCSH BKN035=



000
FTUS44 KHGX 312108 AAA
TAFHOU
TAF AMD
KHOU 312108Z 3121/0118 23011KT P6SM SCT050 BKN250
     FM010900 16003KT 4SM BR SCT007 OVC012
      TEMPO 0109/0113 1SM BR
     FM011500 16007KT P6SM SCT030 OVC150=



000
FTUS44 KHGX 311900 AAA
TAFUTS
TAF AMD
KUTS 311900Z 3119/0118 23012G19KT P6SM FEW040
     FM010400 17005KT P6SM SCT025 OVC250
     FM010900 17004KT P6SM BKN007 OVC015
      TEMPO 0111/0113 3SM BR OVC005
     FM011500 18007KT P6SM BKN030=



000
FTUS44 KHGX 311900 AAA
TAFUTS
TAF AMD
KUTS 311900Z 3119/0118 23012G19KT P6SM FEW040
     FM010400 17005KT P6SM SCT025 OVC250
     FM010900 17004KT P6SM BKN007 OVC015
      TEMPO 0111/0113 3SM BR OVC005
     FM011500 18007KT P6SM BKN030=



000
FTUS44 KHGX 311900 AAA
TAFUTS
TAF AMD
KUTS 311900Z 3119/0118 23012G19KT P6SM FEW040
     FM010400 17005KT P6SM SCT025 OVC250
     FM010900 17004KT P6SM BKN007 OVC015
      TEMPO 0111/0113 3SM BR OVC005
     FM011500 18007KT P6SM BKN030=



000
FTUS44 KHGX 311900 AAA
TAFCLL
TAF AMD
KCLL 311900Z 3119/0118 20015KT P6SM FEW040 SCT250
     FM010200 19008KT P6SM SCT025 BKN150
     FM010900 18005KT P6SM BKN007 OVC015
      TEMPO 0111/0113 3SM BR OVC005
     FM011300 16008KT 4SM BR BKN007 OVC012
     FM011600 18011G17KT P6SM SCT025 OVC040=



000
FTUS44 KHGX 311900 AAA
TAFCLL
TAF AMD
KCLL 311900Z 3119/0118 20015KT P6SM FEW040 SCT250
     FM010200 19008KT P6SM SCT025 BKN150
     FM010900 18005KT P6SM BKN007 OVC015
      TEMPO 0111/0113 3SM BR OVC005
     FM011300 16008KT 4SM BR BKN007 OVC012
     FM011600 18011G17KT P6SM SCT025 OVC040=



000
FTUS44 KHGX 311900 AAA
TAFUTS
TAF AMD
KUTS 311900Z 3119/0118 23012G19KT P6SM FEW040
     FM010400 17005KT P6SM SCT025 OVC250
     FM010900 17004KT P6SM BKN007 OVC015
      TEMPO 0111/0113 3SM BR OVC005
     FM011500 18007KT P6SM BKN030=



000
FTUS44 KHGX 311900 AAA
TAFCLL
TAF AMD
KCLL 311900Z 3119/0118 20015KT P6SM FEW040 SCT250
     FM010200 19008KT P6SM SCT025 BKN150
     FM010900 18005KT P6SM BKN007 OVC015
      TEMPO 0111/0113 3SM BR OVC005
     FM011300 16008KT 4SM BR BKN007 OVC012
     FM011600 18011G17KT P6SM SCT025 OVC040=



000
FTUS44 KHGX 311900 AAA
TAFCLL
TAF AMD
KCLL 311900Z 3119/0118 20015KT P6SM FEW040 SCT250
     FM010200 19008KT P6SM SCT025 BKN150
     FM010900 18005KT P6SM BKN007 OVC015
      TEMPO 0111/0113 3SM BR OVC005
     FM011300 16008KT 4SM BR BKN007 OVC012
     FM011600 18011G17KT P6SM SCT025 OVC040=



000
FTUS44 KHGX 311819 AAA
TAFLBX
TAF AMD
KLBX 311819Z 3118/0118 21014G20KT P6SM FEW030 SCT040
      TEMPO 3118/3119 1SM BR BKN025
     FM010800 17005KT 3SM BR SCT025 OVC250
      TEMPO 0109/0113 1/2SM FG
     FM011300 16005KT 5SM BR SCT007 BKN015
     FM011500 16009KT P6SM OVC015=



000
FTUS44 KHGX 311819 AAA
TAFLBX
TAF AMD
KLBX 311819Z 3118/0118 21014G20KT P6SM FEW030 SCT040
      TEMPO 3118/3119 1SM BR BKN025
     FM010800 17005KT 3SM BR SCT025 OVC250
      TEMPO 0109/0113 1/2SM FG
     FM011300 16005KT 5SM BR SCT007 BKN015
     FM011500 16009KT P6SM OVC015=



000
FTUS44 KHGX 311819 AAA
TAFLBX
TAF AMD
KLBX 311819Z 3118/0118 21014G20KT P6SM FEW030 SCT040
      TEMPO 3118/3119 1SM BR BKN025
     FM010800 17005KT 3SM BR SCT025 OVC250
      TEMPO 0109/0113 1/2SM FG
     FM011300 16005KT 5SM BR SCT007 BKN015
     FM011500 16009KT P6SM OVC015=



000
FTUS44 KHGX 311819 AAA
TAFLBX
TAF AMD
KLBX 311819Z 3118/0118 21014G20KT P6SM FEW030 SCT040
      TEMPO 3118/3119 1SM BR BKN025
     FM010800 17005KT 3SM BR SCT025 OVC250
      TEMPO 0109/0113 1/2SM FG
     FM011300 16005KT 5SM BR SCT007 BKN015
     FM011500 16009KT P6SM OVC015=



000
FTUS44 KHGX 311747 RRA
TAFLBX
TAF
KLBX 311747Z 3118/0118 21014G20KT P6SM FEW030 SCT040
     FM010800 17005KT 3SM BR SCT025 OVC250
      TEMPO 0109/0113 1/2SM FG
     FM011300 16005KT 5SM BR SCT007 BKN015
     FM011500 16009KT P6SM OVC015=



000
FTUS44 KHGX 311747 RRA
TAFLBX
TAF
KLBX 311747Z 3118/0118 21014G20KT P6SM FEW030 SCT040
     FM010800 17005KT 3SM BR SCT025 OVC250
      TEMPO 0109/0113 1/2SM FG
     FM011300 16005KT 5SM BR SCT007 BKN015
     FM011500 16009KT P6SM OVC015=



000
FTUS44 KHGX 311747 RRA
TAFGLS
TAF
KGLS 311747Z 3118/0118 19010KT P6SM SCT020 SCT250
     FM011000 15008KT P6SM SCT015 BKN025
     FM011500 16009KT P6SM SCT020 BKN150=



000
FTUS44 KHGX 311747 RRA
TAFSGR
TAF
KSGR 311747Z 3118/0118 19011KT P6SM FEW040
     FM010900 16006KT 6SM BR SCT007 OVC012
      TEMPO 0109/0113 2SM BR
     FM011500 16008KT P6SM SCT030 OVC150=



000
FTUS44 KHGX 311747 RRA
TAFSGR
TAF
KSGR 311747Z 3118/0118 19011KT P6SM FEW040
     FM010900 16006KT 6SM BR SCT007 OVC012
      TEMPO 0109/0113 2SM BR
     FM011500 16008KT P6SM SCT030 OVC150=



000
FTUS44 KHGX 311747 RRA
TAFGLS
TAF
KGLS 311747Z 3118/0118 19010KT P6SM SCT020 SCT250
     FM011000 15008KT P6SM SCT015 BKN025
     FM011500 16009KT P6SM SCT020 BKN150=



000
FTUS44 KHGX 311747 RRA
TAFGLS
TAF
KGLS 311747Z 3118/0118 19010KT P6SM SCT020 SCT250
     FM011000 15008KT P6SM SCT015 BKN025
     FM011500 16009KT P6SM SCT020 BKN150=



000
FTUS44 KHGX 311747 RRA
TAFSGR
TAF
KSGR 311747Z 3118/0118 19011KT P6SM FEW040
     FM010900 16006KT 6SM BR SCT007 OVC012
      TEMPO 0109/0113 2SM BR
     FM011500 16008KT P6SM SCT030 OVC150=



000
FTUS44 KHGX 311747 RRA
TAFGLS
TAF
KGLS 311747Z 3118/0118 19010KT P6SM SCT020 SCT250
     FM011000 15008KT P6SM SCT015 BKN025
     FM011500 16009KT P6SM SCT020 BKN150=



000
FTUS44 KHGX 311747 RRA
TAFSGR
TAF
KSGR 311747Z 3118/0118 19011KT P6SM FEW040
     FM010900 16006KT 6SM BR SCT007 OVC012
      TEMPO 0109/0113 2SM BR
     FM011500 16008KT P6SM SCT030 OVC150=



000
FTUS44 KHGX 311747 RRA
TAFLBX
TAF
KLBX 311747Z 3118/0118 21014G20KT P6SM FEW030 SCT040
     FM010800 17005KT 3SM BR SCT025 OVC250
      TEMPO 0109/0113 1/2SM FG
     FM011300 16005KT 5SM BR SCT007 BKN015
     FM011500 16009KT P6SM OVC015=



000
FTUS44 KHGX 311747 RRA
TAFLBX
TAF
KLBX 311747Z 3118/0118 21014G20KT P6SM FEW030 SCT040
     FM010800 17005KT 3SM BR SCT025 OVC250
      TEMPO 0109/0113 1/2SM FG
     FM011300 16005KT 5SM BR SCT007 BKN015
     FM011500 16009KT P6SM OVC015=



000
FTUS44 KHGX 311740
TAFLBX
TAF
KLBX 311740Z 3118/0118 21014G20KT P6SM FEW030 SCT040
     FM010400 17005KT 6SM BR SCT025 OVC250
     FM010900 16005KT 2SM BR SCT007 BKN015=



000
FTUS44 KHGX 311740
TAFUTS
TAF
KUTS 311740Z 3118/0118 19010KT P6SM SCT030
     FM010400 17005KT P6SM SCT025 OVC250
     FM010900 17004KT P6SM BKN007 OVC015
      TEMPO 0111/0113 3SM BR OVC005
     FM011500 18007KT P6SM BKN030=



000
FTUS44 KHGX 311740
TAFGLS
TAF
KGLS 311740Z 3118/0118 20011KT P6SM SCT020
     FM010100 16009KT P6SM SCT020 OVC250
     FM011000 15008KT P6SM SCT015 BKN025=



000
FTUS44 KHGX 311740
TAFIAH
TAF
KIAH 311740Z 3118/0124 22008KT P6SM SCT030 SCT250
     FM010300 17006KT P6SM SCT025 OVC250
     FM010900 16004KT P6SM SCT007 OVC015
     FM011600 17007KT P6SM SCT030 OVC150
     FM012100 16013KT P6SM VCSH BKN035=



000
FTUS44 KHGX 311740
TAFCXO
TAF
KCXO 311740Z 3118/0118 20008G16KT P6SM SCT035
     FM010400 16005KT P6SM SCT025 OVC250
     FM010900 16004KT P6SM BKN007 OVC015
      TEMPO 0109/0113 1/2SM FG
     FM011500 18007KT P6SM OVC035=



000
FTUS44 KHGX 311740
TAFCLL
TAF
KCLL 311740Z 3118/0118 24014KT P6SM OVC035
     FM010200 19008KT P6SM SCT025 BKN150
     FM010900 18005KT P6SM BKN007 OVC015
      TEMPO 0111/0113 3SM BR OVC005
     FM011300 16008KT 4SM BR BKN007 OVC012
     FM011600 18011G17KT P6SM SCT025 OVC040=



000
FTUS44 KHGX 311740
TAFSGR
TAF
KSGR 311740Z 3118/0118 19010KT P6SM FEW040
     FM010900 16005KT P6SM SCT007 BKN015=



000
FTUS44 KHGX 311740
TAFUTS
TAF
KUTS 311740Z 3118/0118 19010KT P6SM SCT030
     FM010400 17005KT P6SM SCT025 OVC250
     FM010900 17004KT P6SM BKN007 OVC015
      TEMPO 0111/0113 3SM BR OVC005
     FM011500 18007KT P6SM BKN030=



000
FTUS44 KHGX 311740
TAFIAH
TAF
KIAH 311740Z 3118/0124 22008KT P6SM SCT030 SCT250
     FM010300 17006KT P6SM SCT025 OVC250
     FM010900 16004KT P6SM SCT007 OVC015
     FM011600 17007KT P6SM SCT030 OVC150
     FM012100 16013KT P6SM VCSH BKN035=



000
FTUS44 KHGX 311740
TAFCLL
TAF
KCLL 311740Z 3118/0118 24014KT P6SM OVC035
     FM010200 19008KT P6SM SCT025 BKN150
     FM010900 18005KT P6SM BKN007 OVC015
      TEMPO 0111/0113 3SM BR OVC005
     FM011300 16008KT 4SM BR BKN007 OVC012
     FM011600 18011G17KT P6SM SCT025 OVC040=



000
FTUS44 KHGX 311740
TAFHOU
TAF
KHOU 311740Z 3118/0118 23011KT P6SM SCT025 SCT250
     FM010900 16003KT 4SM BR SCT007 OVC012
      TEMPO 0109/0113 1SM BR
     FM011500 16007KT P6SM SCT030 OVC150=



000
FTUS44 KHGX 311740
TAFSGR
TAF
KSGR 311740Z 3118/0118 19010KT P6SM FEW040
     FM010900 16005KT P6SM SCT007 BKN015=



000
FTUS44 KHGX 311740
TAFHOU
TAF
KHOU 311740Z 3118/0118 23011KT P6SM SCT025 SCT250
     FM010900 16003KT 4SM BR SCT007 OVC012
      TEMPO 0109/0113 1SM BR
     FM011500 16007KT P6SM SCT030 OVC150=



000
FTUS44 KHGX 311740
TAFLBX
TAF
KLBX 311740Z 3118/0118 21014G20KT P6SM FEW030 SCT040
     FM010400 17005KT 6SM BR SCT025 OVC250
     FM010900 16005KT 2SM BR SCT007 BKN015=



000
FTUS44 KHGX 311740
TAFCXO
TAF
KCXO 311740Z 3118/0118 20008G16KT P6SM SCT035
     FM010400 16005KT P6SM SCT025 OVC250
     FM010900 16004KT P6SM BKN007 OVC015
      TEMPO 0109/0113 1/2SM FG
     FM011500 18007KT P6SM OVC035=



000
FTUS44 KHGX 311740
TAFGLS
TAF
KGLS 311740Z 3118/0118 20011KT P6SM SCT020
     FM010100 16009KT P6SM SCT020 OVC250
     FM011000 15008KT P6SM SCT015 BKN025=



000
FTUS44 KHGX 311740
TAFUTS
TAF
KUTS 311740Z 3118/0118 19010KT P6SM SCT030
     FM010400 17005KT P6SM SCT025 OVC250
     FM010900 17004KT P6SM BKN007 OVC015
      TEMPO 0111/0113 3SM BR OVC005
     FM011500 18007KT P6SM BKN030=



000
FTUS44 KHGX 311740
TAFCLL
TAF
KCLL 311740Z 3118/0118 24014KT P6SM OVC035
     FM010200 19008KT P6SM SCT025 BKN150
     FM010900 18005KT P6SM BKN007 OVC015
      TEMPO 0111/0113 3SM BR OVC005
     FM011300 16008KT 4SM BR BKN007 OVC012
     FM011600 18011G17KT P6SM SCT025 OVC040=



000
FTUS44 KHGX 311740
TAFLBX
TAF
KLBX 311740Z 3118/0118 21014G20KT P6SM FEW030 SCT040
     FM010400 17005KT 6SM BR SCT025 OVC250
     FM010900 16005KT 2SM BR SCT007 BKN015=



000
FTUS44 KHGX 311740
TAFHOU
TAF
KHOU 311740Z 3118/0118 23011KT P6SM SCT025 SCT250
     FM010900 16003KT 4SM BR SCT007 OVC012
      TEMPO 0109/0113 1SM BR
     FM011500 16007KT P6SM SCT030 OVC150=



000
FTUS44 KHGX 311740
TAFCXO
TAF
KCXO 311740Z 3118/0118 20008G16KT P6SM SCT035
     FM010400 16005KT P6SM SCT025 OVC250
     FM010900 16004KT P6SM BKN007 OVC015
      TEMPO 0109/0113 1/2SM FG
     FM011500 18007KT P6SM OVC035=



000
FTUS44 KHGX 311740
TAFIAH
TAF
KIAH 311740Z 3118/0124 22008KT P6SM SCT030 SCT250
     FM010300 17006KT P6SM SCT025 OVC250
     FM010900 16004KT P6SM SCT007 OVC015
     FM011600 17007KT P6SM SCT030 OVC150
     FM012100 16013KT P6SM VCSH BKN035=



000
FTUS44 KHGX 311740
TAFGLS
TAF
KGLS 311740Z 3118/0118 20011KT P6SM SCT020
     FM010100 16009KT P6SM SCT020 OVC250
     FM011000 15008KT P6SM SCT015 BKN025=



000
FTUS44 KHGX 311740
TAFSGR
TAF
KSGR 311740Z 3118/0118 19010KT P6SM FEW040
     FM010900 16005KT P6SM SCT007 BKN015=



000
FTUS44 KHGX 311740
TAFCLL
TAF
KCLL 311740Z 3118/0118 24014KT P6SM OVC035
     FM010200 19008KT P6SM SCT025 BKN150
     FM010900 18005KT P6SM BKN007 OVC015
      TEMPO 0111/0113 3SM BR OVC005
     FM011300 16008KT 4SM BR BKN007 OVC012
     FM011600 18011G17KT P6SM SCT025 OVC040=



000
FTUS44 KHGX 311740
TAFIAH
TAF
KIAH 311740Z 3118/0124 22008KT P6SM SCT030 SCT250
     FM010300 17006KT P6SM SCT025 OVC250
     FM010900 16004KT P6SM SCT007 OVC015
     FM011600 17007KT P6SM SCT030 OVC150
     FM012100 16013KT P6SM VCSH BKN035=



000
FTUS44 KHGX 311740
TAFCXO
TAF
KCXO 311740Z 3118/0118 20008G16KT P6SM SCT035
     FM010400 16005KT P6SM SCT025 OVC250
     FM010900 16004KT P6SM BKN007 OVC015
      TEMPO 0109/0113 1/2SM FG
     FM011500 18007KT P6SM OVC035=



000
FTUS44 KHGX 311740
TAFUTS
TAF
KUTS 311740Z 3118/0118 19010KT P6SM SCT030
     FM010400 17005KT P6SM SCT025 OVC250
     FM010900 17004KT P6SM BKN007 OVC015
      TEMPO 0111/0113 3SM BR OVC005
     FM011500 18007KT P6SM BKN030=



000
FTUS44 KHGX 311740
TAFSGR
TAF
KSGR 311740Z 3118/0118 19010KT P6SM FEW040
     FM010900 16005KT P6SM SCT007 BKN015=



000
FTUS44 KHGX 311740
TAFHOU
TAF
KHOU 311740Z 3118/0118 23011KT P6SM SCT025 SCT250
     FM010900 16003KT 4SM BR SCT007 OVC012
      TEMPO 0109/0113 1SM BR
     FM011500 16007KT P6SM SCT030 OVC150=



000
FTUS44 KHGX 311648 AAB
TAFLBX
TAF AMD
KLBX 311648Z 3117/0112 21011G21KT 2SM HZ FEW025 SCT040
     FM311800 19007KT P6SM SCT035 BKN250
     FM010400 17005KT 6SM BR SCT025 OVC250
     FM010900 16005KT 2SM BR SCT007 BKN015=



000
FTUS44 KHGX 311648 AAB
TAFLBX
TAF AMD
KLBX 311648Z 3117/0112 21011G21KT 2SM HZ FEW025 SCT040
     FM311800 19007KT P6SM SCT035 BKN250
     FM010400 17005KT 6SM BR SCT025 OVC250
     FM010900 16005KT 2SM BR SCT007 BKN015=



000
FTUS44 KHGX 311648 AAB
TAFLBX
TAF AMD
KLBX 311648Z 3117/0112 21011G21KT 2SM HZ FEW025 SCT040
     FM311800 19007KT P6SM SCT035 BKN250
     FM010400 17005KT 6SM BR SCT025 OVC250
     FM010900 16005KT 2SM BR SCT007 BKN015=



000
FTUS44 KHGX 311500 AAB
TAFIAH
TAF AMD
KIAH 311500Z 3115/0118 25011KT P6SM BKN015
     FM311700 18009KT P6SM BKN035 BKN250
     FM010400 17005KT P6SM SCT025 OVC250
     FM010900 16004KT P6SM SCT007 BKN015
     FM011500 14007KT P6SM SCT007 OVC015=



000
FTUS44 KHGX 311500 AAD
TAFHOU
TAF AMD
KHOU 311500Z 3115/0112 22011KT P6SM SCT030 SCT250
     FM311700 19007KT P6SM SCT035 BKN250
     FM010900 16004KT P6SM SCT007 BKN015=



000
FTUS44 KHGX 311500 AAB
TAFIAH
TAF AMD
KIAH 311500Z 3115/0118 25011KT P6SM BKN015
     FM311700 18009KT P6SM BKN035 BKN250
     FM010400 17005KT P6SM SCT025 OVC250
     FM010900 16004KT P6SM SCT007 BKN015
     FM011500 14007KT P6SM SCT007 OVC015=



000
FTUS44 KHGX 311500 AAB
TAFIAH
TAF AMD
KIAH 311500Z 3115/0118 25011KT P6SM BKN015
     FM311700 18009KT P6SM BKN035 BKN250
     FM010400 17005KT P6SM SCT025 OVC250
     FM010900 16004KT P6SM SCT007 BKN015
     FM011500 14007KT P6SM SCT007 OVC015=



000
FTUS44 KHGX 311500 AAD
TAFHOU
TAF AMD
KHOU 311500Z 3115/0112 22011KT P6SM SCT030 SCT250
     FM311700 19007KT P6SM SCT035 BKN250
     FM010900 16004KT P6SM SCT007 BKN015=



000
FTUS44 KHGX 311500 AAD
TAFHOU
TAF AMD
KHOU 311500Z 3115/0112 22011KT P6SM SCT030 SCT250
     FM311700 19007KT P6SM SCT035 BKN250
     FM010900 16004KT P6SM SCT007 BKN015=



000
FTUS44 KHGX 311500 AAB
TAFIAH
TAF AMD
KIAH 311500Z 3115/0118 25011KT P6SM BKN015
     FM311700 18009KT P6SM BKN035 BKN250
     FM010400 17005KT P6SM SCT025 OVC250
     FM010900 16004KT P6SM SCT007 BKN015
     FM011500 14007KT P6SM SCT007 OVC015=



000
FTUS44 KHGX 311500 AAD
TAFHOU
TAF AMD
KHOU 311500Z 3115/0112 22011KT P6SM SCT030 SCT250
     FM311700 19007KT P6SM SCT035 BKN250
     FM010900 16004KT P6SM SCT007 BKN015=



000
FTUS44 KHGX 311430 AAB
TAFSGR
TAF AMD
KSGR 311430Z 3115/0112 21004KT 6SM BR OVC015
      TEMPO 3115/3116 3SM BR OVC002
     FM311600 20009KT P6SM SCT020 BKN025
     FM311700 19007KT P6SM SCT035 BKN250
     FM010900 16005KT P6SM SCT007 BKN015=



000
FTUS44 KHGX 311430 AAB
TAFSGR
TAF AMD
KSGR 311430Z 3115/0112 21004KT 6SM BR OVC015
      TEMPO 3115/3116 3SM BR OVC002
     FM311600 20009KT P6SM SCT020 BKN025
     FM311700 19007KT P6SM SCT035 BKN250
     FM010900 16005KT P6SM SCT007 BKN015=



000
FTUS44 KHGX 311430 AAB
TAFSGR
TAF AMD
KSGR 311430Z 3115/0112 21004KT 6SM BR OVC015
      TEMPO 3115/3116 3SM BR OVC002
     FM311600 20009KT P6SM SCT020 BKN025
     FM311700 19007KT P6SM SCT035 BKN250
     FM010900 16005KT P6SM SCT007 BKN015=



000
FTUS44 KHGX 311427 AAA
TAFLBX
TAF AMD
KLBX 311427Z 3114/0112 20006KT P6SM SCT025
     FM311800 19007KT P6SM SCT035 BKN250
     FM010400 17005KT 6SM BR SCT025 OVC250
     FM010900 16005KT 2SM BR SCT007 BKN015=



000
FTUS44 KHGX 311427 AAA
TAFLBX
TAF AMD
KLBX 311427Z 3114/0112 20006KT P6SM SCT025
     FM311800 19007KT P6SM SCT035 BKN250
     FM010400 17005KT 6SM BR SCT025 OVC250
     FM010900 16005KT 2SM BR SCT007 BKN015=



000
FTUS44 KHGX 311427 AAA
TAFLBX
TAF AMD
KLBX 311427Z 3114/0112 20006KT P6SM SCT025
     FM311800 19007KT P6SM SCT035 BKN250
     FM010400 17005KT 6SM BR SCT025 OVC250
     FM010900 16005KT 2SM BR SCT007 BKN015=



000
FTUS44 KHGX 311427 AAA
TAFLBX
TAF AMD
KLBX 311427Z 3114/0112 20006KT P6SM SCT025
     FM311800 19007KT P6SM SCT035 BKN250
     FM010400 17005KT 6SM BR SCT025 OVC250
     FM010900 16005KT 2SM BR SCT007 BKN015=



000
FTUS44 KHGX 311425 AAC
TAFHOU
TAF AMD
KHOU 311425Z 3114/0112 21007KT P6SM FEW025 SCT250
     FM311700 19007KT P6SM SCT035 BKN250
     FM010900 16004KT P6SM SCT007 BKN015=



000
FTUS44 KHGX 311425 AAC
TAFHOU
TAF AMD
KHOU 311425Z 3114/0112 21007KT P6SM FEW025 SCT250
     FM311700 19007KT P6SM SCT035 BKN250
     FM010900 16004KT P6SM SCT007 BKN015=



000
FTUS44 KHGX 311425 AAC
TAFHOU
TAF AMD
KHOU 311425Z 3114/0112 21007KT P6SM FEW025 SCT250
     FM311700 19007KT P6SM SCT035 BKN250
     FM010900 16004KT P6SM SCT007 BKN015=



000
FTUS44 KHGX 311415 AAA
TAFIAH
TAF AMD
KIAH 311415Z 3114/0118 19003KT P6SM SCT018 SCT250
      TEMPO 3114/3115 SCT007 BKN008 OVC015
     FM311500 19007KT P6SM BKN015 OVC025
     FM311700 18009KT P6SM BKN035 BKN250
     FM010400 17005KT P6SM SCT025 OVC250
     FM010900 16004KT P6SM SCT007 BKN015
     FM011500 14007KT P6SM SCT007 OVC015=



000
FTUS44 KHGX 311415 AAA
TAFIAH
TAF AMD
KIAH 311415Z 3114/0118 19003KT P6SM SCT018 SCT250
      TEMPO 3114/3115 SCT007 BKN008 OVC015
     FM311500 19007KT P6SM BKN015 OVC025
     FM311700 18009KT P6SM BKN035 BKN250
     FM010400 17005KT P6SM SCT025 OVC250
     FM010900 16004KT P6SM SCT007 BKN015
     FM011500 14007KT P6SM SCT007 OVC015=



000
FTUS44 KHGX 311415 AAA
TAFIAH
TAF AMD
KIAH 311415Z 3114/0118 19003KT P6SM SCT018 SCT250
      TEMPO 3114/3115 SCT007 BKN008 OVC015
     FM311500 19007KT P6SM BKN015 OVC025
     FM311700 18009KT P6SM BKN035 BKN250
     FM010400 17005KT P6SM SCT025 OVC250
     FM010900 16004KT P6SM SCT007 BKN015
     FM011500 14007KT P6SM SCT007 OVC015=



000
FTUS44 KHGX 311324 AAA
TAFSGR
TAF AMD
KSGR 311324Z 3113/0112 21004KT 2SM BR BKN008 OVC012
      TEMPO 3113/3114 1/4SM FG OVC002
     FM311430 19006KT P6SM SCT007 OVC015
     FM311600 20009KT P6SM SCT020 BKN025
     FM311700 19007KT P6SM SCT035 BKN250
     FM010900 16005KT P6SM SCT007 BKN015=



000
FTUS44 KHGX 311324 AAA
TAFSGR
TAF AMD
KSGR 311324Z 3113/0112 21004KT 2SM BR BKN008 OVC012
      TEMPO 3113/3114 1/4SM FG OVC002
     FM311430 19006KT P6SM SCT007 OVC015
     FM311600 20009KT P6SM SCT020 BKN025
     FM311700 19007KT P6SM SCT035 BKN250
     FM010900 16005KT P6SM SCT007 BKN015=



000
FTUS44 KHGX 311324 AAA
TAFSGR
TAF AMD
KSGR 311324Z 3113/0112 21004KT 2SM BR BKN008 OVC012
      TEMPO 3113/3114 1/4SM FG OVC002
     FM311430 19006KT P6SM SCT007 OVC015
     FM311600 20009KT P6SM SCT020 BKN025
     FM311700 19007KT P6SM SCT035 BKN250
     FM010900 16005KT P6SM SCT007 BKN015=



000
FTUS44 KHGX 311321 AAB
TAFHOU
TAF AMD
KHOU 311321Z 3113/0112 19003KT 4SM BR BKN020
      TEMPO 3113/3114 1/4SM FG
     FM311500 20007KT P6SM BKN025
     FM311700 19007KT P6SM SCT035 BKN250
     FM010900 16004KT P6SM SCT007 BKN015=



000
FTUS44 KHGX 311321 AAB
TAFHOU
TAF AMD
KHOU 311321Z 3113/0112 19003KT 4SM BR BKN020
      TEMPO 3113/3114 1/4SM FG
     FM311500 20007KT P6SM BKN025
     FM311700 19007KT P6SM SCT035 BKN250
     FM010900 16004KT P6SM SCT007 BKN015=



000
FTUS44 KHGX 311321 AAB
TAFHOU
TAF AMD
KHOU 311321Z 3113/0112 19003KT 4SM BR BKN020
      TEMPO 3113/3114 1/4SM FG
     FM311500 20007KT P6SM BKN025
     FM311700 19007KT P6SM SCT035 BKN250
     FM010900 16004KT P6SM SCT007 BKN015=



000
FTUS44 KHGX 311252 AAA
TAFHOU
TAF AMD
KHOU 311252Z 3113/0112 19003KT 4SM BR SCT020 SCT250
      TEMPO 3113/3115 3SM BR
     FM311500 20007KT P6SM BKN025
     FM311700 19007KT P6SM SCT035 BKN250
     FM010900 16004KT P6SM SCT007 BKN015=



000
FTUS44 KHGX 311252 AAA
TAFHOU
TAF AMD
KHOU 311252Z 3113/0112 19003KT 4SM BR SCT020 SCT250
      TEMPO 3113/3115 3SM BR
     FM311500 20007KT P6SM BKN025
     FM311700 19007KT P6SM SCT035 BKN250
     FM010900 16004KT P6SM SCT007 BKN015=



000
FTUS44 KHGX 311252 AAA
TAFHOU
TAF AMD
KHOU 311252Z 3113/0112 19003KT 4SM BR SCT020 SCT250
      TEMPO 3113/3115 3SM BR
     FM311500 20007KT P6SM BKN025
     FM311700 19007KT P6SM SCT035 BKN250
     FM010900 16004KT P6SM SCT007 BKN015=



000
FTUS44 KHGX 311252 AAA
TAFHOU
TAF AMD
KHOU 311252Z 3113/0112 19003KT 4SM BR SCT020 SCT250
      TEMPO 3113/3115 3SM BR
     FM311500 20007KT P6SM BKN025
     FM311700 19007KT P6SM SCT035 BKN250
     FM010900 16004KT P6SM SCT007 BKN015=



000
FTUS44 KHGX 311120
TAFCXO
TAF
KCXO 311120Z 3112/0112 19004KT P6SM SCT006 OVC011
      TEMPO 3112/3114 6SM BR BKN005
     FM311500 19005KT P6SM OVC025
     FM311800 19007KT P6SM BKN035 BKN250
     FM010400 16005KT P6SM SCT025 OVC250
     FM010900 16004KT P6SM BKN007 OVC015=



000
FTUS44 KHGX 311120
TAFSGR
TAF
KSGR 311120Z 3112/0112 19003KT 3SM BR SCT002 OVC015
      TEMPO 3112/3114 1SM BR BKN002 OVC010
     FM311430 19006KT P6SM SCT007 OVC015
     FM311600 20009KT P6SM SCT020 BKN025
     FM311700 19007KT P6SM SCT035 BKN250
     FM010900 16005KT P6SM SCT007 BKN015=



000
FTUS44 KHGX 311120
TAFHOU
TAF
KHOU 311120Z 3112/0112 19003KT P6SM FEW015 SCT250
      TEMPO 3112/3115 MIFG SCT007 OVC015
     FM311500 20007KT P6SM BKN025
     FM311700 19007KT P6SM SCT035 BKN250
     FM010900 16004KT P6SM SCT007 BKN015=



000
FTUS44 KHGX 311120
TAFCLL
TAF
KCLL 311120Z 3112/0112 19008KT P6SM BKN012
     FM311600 19009KT P6SM BKN015 OVC025
     FM311800 19011KT P6SM BKN035 BKN250
     FM010400 17005KT P6SM SCT025 OVC250
     FM010900 17004KT P6SM BKN007 OVC015=



000
FTUS44 KHGX 311120
TAFCXO
TAF
KCXO 311120Z 3112/0112 19004KT P6SM SCT006 OVC011
      TEMPO 3112/3114 6SM BR BKN005
     FM311500 19005KT P6SM OVC025
     FM311800 19007KT P6SM BKN035 BKN250
     FM010400 16005KT P6SM SCT025 OVC250
     FM010900 16004KT P6SM BKN007 OVC015=



000
FTUS44 KHGX 311120
TAFHOU
TAF
KHOU 311120Z 3112/0112 19003KT P6SM FEW015 SCT250
      TEMPO 3112/3115 MIFG SCT007 OVC015
     FM311500 20007KT P6SM BKN025
     FM311700 19007KT P6SM SCT035 BKN250
     FM010900 16004KT P6SM SCT007 BKN015=



000
FTUS44 KHGX 311120
TAFLBX
TAF
KLBX 311120Z 3112/0112 00000KT 3SM BR SCT013
      TEMPO 3112/3114 1/4SM FG VV009
     FM311400 19005KT 4SM BR SCT007 OVC015
     FM311600 20009KT P6SM BKN020 BKN250
     FM311800 19007KT P6SM SCT035 BKN250
     FM010400 17005KT 6SM BR SCT025 OVC250
     FM010900 16005KT 2SM BR SCT007 BKN015=



000
FTUS44 KHGX 311120
TAFGLS
TAF
KGLS 311120Z 3112/0112 18006KT P6SM SCT015 SCT250
     FM010100 16009KT P6SM SCT020 OVC250
     FM011000 15008KT P6SM SCT015 BKN025=



000
FTUS44 KHGX 311120
TAFUTS
TAF
KUTS 311120Z 3112/0112 19006KT P6SM SCT009 BKN250
      TEMPO 3112/3114 6SM BR OVC005
     FM311500 19006KT P6SM SCT007 OVC015
     FM311600 19009KT P6SM OVC020
     FM311800 19007KT P6SM BKN035 BKN250
     FM010400 17005KT P6SM SCT025 OVC250
     FM010900 17004KT P6SM BKN007 OVC015=



000
FTUS44 KHGX 311120
TAFIAH
TAF
KIAH 311120Z 3112/0118 19003KT P6SM SCT018 SCT250
      TEMPO 3112/3115 SCT007 OVC015
     FM311500 19007KT P6SM BKN015 OVC025
     FM311700 18009KT P6SM BKN035 BKN250
     FM010400 17005KT P6SM SCT025 OVC250
     FM010900 16004KT P6SM SCT007 BKN015
     FM011500 14007KT P6SM SCT007 OVC015=



000
FTUS44 KHGX 311120
TAFIAH
TAF
KIAH 311120Z 3112/0118 19003KT P6SM SCT018 SCT250
      TEMPO 3112/3115 SCT007 OVC015
     FM311500 19007KT P6SM BKN015 OVC025
     FM311700 18009KT P6SM BKN035 BKN250
     FM010400 17005KT P6SM SCT025 OVC250
     FM010900 16004KT P6SM SCT007 BKN015
     FM011500 14007KT P6SM SCT007 OVC015=



000
FTUS44 KHGX 311120
TAFLBX
TAF
KLBX 311120Z 3112/0112 00000KT 3SM BR SCT013
      TEMPO 3112/3114 1/4SM FG VV009
     FM311400 19005KT 4SM BR SCT007 OVC015
     FM311600 20009KT P6SM BKN020 BKN250
     FM311800 19007KT P6SM SCT035 BKN250
     FM010400 17005KT 6SM BR SCT025 OVC250
     FM010900 16005KT 2SM BR SCT007 BKN015=



000
FTUS44 KHGX 311120
TAFCLL
TAF
KCLL 311120Z 3112/0112 19008KT P6SM BKN012
     FM311600 19009KT P6SM BKN015 OVC025
     FM311800 19011KT P6SM BKN035 BKN250
     FM010400 17005KT P6SM SCT025 OVC250
     FM010900 17004KT P6SM BKN007 OVC015=



000
FTUS44 KHGX 311120
TAFSGR
TAF
KSGR 311120Z 3112/0112 19003KT 3SM BR SCT002 OVC015
      TEMPO 3112/3114 1SM BR BKN002 OVC010
     FM311430 19006KT P6SM SCT007 OVC015
     FM311600 20009KT P6SM SCT020 BKN025
     FM311700 19007KT P6SM SCT035 BKN250
     FM010900 16005KT P6SM SCT007 BKN015=



000
FTUS44 KHGX 311120
TAFGLS
TAF
KGLS 311120Z 3112/0112 18006KT P6SM SCT015 SCT250
     FM010100 16009KT P6SM SCT020 OVC250
     FM011000 15008KT P6SM SCT015 BKN025=



000
FTUS44 KHGX 311120
TAFUTS
TAF
KUTS 311120Z 3112/0112 19006KT P6SM SCT009 BKN250
      TEMPO 3112/3114 6SM BR OVC005
     FM311500 19006KT P6SM SCT007 OVC015
     FM311600 19009KT P6SM OVC020
     FM311800 19007KT P6SM BKN035 BKN250
     FM010400 17005KT P6SM SCT025 OVC250
     FM010900 17004KT P6SM BKN007 OVC015=



000
FTUS44 KHGX 310902 AAA
TAFUTS
TAF AMD
KUTS 310902Z 3109/0106 19006KT P6SM SCT250
      TEMPO 3109/3113 4SM BR SCT007 OVC015
     FM311300 18005KT 4SM BR SCT007 OVC015
     FM311500 20011KT P6SM OVC020
     FM311800 19007KT P6SM BKN035 BKN250
     FM010200 17006KT P6SM OVC250=



000
FTUS44 KHGX 310902 AAA
TAFUTS
TAF AMD
KUTS 310902Z 3109/0106 19006KT P6SM SCT250
      TEMPO 3109/3113 4SM BR SCT007 OVC015
     FM311300 18005KT 4SM BR SCT007 OVC015
     FM311500 20011KT P6SM OVC020
     FM311800 19007KT P6SM BKN035 BKN250
     FM010200 17006KT P6SM OVC250=



000
FTUS44 KHGX 310901 AAA
TAFCXO
TAF AMD
KCXO 310901Z 3109/0106 18003KT P6SM SCT014
      TEMPO 3109/3113 3SM BR SCT007 OVC014
     FM311500 19005KT P6SM OVC025
     FM311800 19007KT P6SM BKN035 BKN250
     FM010200 17006KT P6SM OVC250=



000
FTUS44 KHGX 310901 AAA
TAFCXO
TAF AMD
KCXO 310901Z 3109/0106 18003KT P6SM SCT014
      TEMPO 3109/3113 3SM BR SCT007 OVC014
     FM311500 19005KT P6SM OVC025
     FM311800 19007KT P6SM BKN035 BKN250
     FM010200 17006KT P6SM OVC250=



000
FTUS44 KHGX 310901 AAA
TAFCXO
TAF AMD
KCXO 310901Z 3109/0106 18003KT P6SM SCT014
      TEMPO 3109/3113 3SM BR SCT007 OVC014
     FM311500 19005KT P6SM OVC025
     FM311800 19007KT P6SM BKN035 BKN250
     FM010200 17006KT P6SM OVC250=



000
FTUS44 KHGX 310901 AAA
TAFCXO
TAF AMD
KCXO 310901Z 3109/0106 18003KT P6SM SCT014
      TEMPO 3109/3113 3SM BR SCT007 OVC014
     FM311500 19005KT P6SM OVC025
     FM311800 19007KT P6SM BKN035 BKN250
     FM010200 17006KT P6SM OVC250=



000
FTUS44 KHGX 310900 AAA
TAFLBX
TAF AMD
KLBX 310900Z 3109/0106 19004KT 3SM BR SCT250
      TEMPO 3109/3113 1/2SM FG OVC003
     FM311300 19005KT 4SM BR SCT007 OVC015
     FM311600 20009KT P6SM BKN020 BKN250
     FM311800 19007KT P6SM SCT035 BKN250
     FM010200 17006KT P6SM OVC250=



000
FTUS44 KHGX 310900 AAA
TAFLBX
TAF AMD
KLBX 310900Z 3109/0106 19004KT 3SM BR SCT250
      TEMPO 3109/3113 1/2SM FG OVC003
     FM311300 19005KT 4SM BR SCT007 OVC015
     FM311600 20009KT P6SM BKN020 BKN250
     FM311800 19007KT P6SM SCT035 BKN250
     FM010200 17006KT P6SM OVC250=



000
FTUS44 KHGX 310900 AAA
TAFLBX
TAF AMD
KLBX 310900Z 3109/0106 19004KT 3SM BR SCT250
      TEMPO 3109/3113 1/2SM FG OVC003
     FM311300 19005KT 4SM BR SCT007 OVC015
     FM311600 20009KT P6SM BKN020 BKN250
     FM311800 19007KT P6SM SCT035 BKN250
     FM010200 17006KT P6SM OVC250=



000
FTUS44 KHGX 310900 AAA
TAFLBX
TAF AMD
KLBX 310900Z 3109/0106 19004KT 3SM BR SCT250
      TEMPO 3109/3113 1/2SM FG OVC003
     FM311300 19005KT 4SM BR SCT007 OVC015
     FM311600 20009KT P6SM BKN020 BKN250
     FM311800 19007KT P6SM SCT035 BKN250
     FM010200 17006KT P6SM OVC250=



000
FTUS44 KHGX 310858 AAA
TAFSGR
TAF AMD
KSGR 310858Z 3109/0106 19006KT P6SM SCT250
      TEMPO 3110/3114 3SM BR SCT007 OVC015
     FM311400 19006KT P6SM SCT007 OVC015
     FM311600 20009KT P6SM SCT020 BKN025
     FM311700 19007KT P6SM SCT035 BKN250
     FM010200 17006KT P6SM OVC250=



000
FTUS44 KHGX 310858 AAA
TAFSGR
TAF AMD
KSGR 310858Z 3109/0106 19006KT P6SM SCT250
      TEMPO 3110/3114 3SM BR SCT007 OVC015
     FM311400 19006KT P6SM SCT007 OVC015
     FM311600 20009KT P6SM SCT020 BKN025
     FM311700 19007KT P6SM SCT035 BKN250
     FM010200 17006KT P6SM OVC250=



000
FTUS44 KHGX 310856 AAA
TAFHOU
TAF AMD
KHOU 310856Z 3109/0106 19004KT P6SM SCT250
      TEMPO 3111/3115 MIFG SCT007 OVC015
     FM311500 20007KT P6SM BKN025
     FM311700 19007KT P6SM SCT035 BKN250
     FM010200 17006KT P6SM OVC250=



000
FTUS44 KHGX 310856 AAA
TAFHOU
TAF AMD
KHOU 310856Z 3109/0106 19004KT P6SM SCT250
      TEMPO 3111/3115 MIFG SCT007 OVC015
     FM311500 20007KT P6SM BKN025
     FM311700 19007KT P6SM SCT035 BKN250
     FM010200 17006KT P6SM OVC250=



000
FTUS44 KHGX 310855 AAA
TAFIAH
TAF AMD
KIAH 310855Z 3109/0112 18003KT P6SM SCT250
      TEMPO 3111/3115 SCT007 OVC015
     FM311500 19007KT P6SM BKN015 OVC025
     FM311700 19009KT P6SM BKN035 BKN250
     FM010400 18005KT P6SM SCT025 OVC250=



000
FTUS44 KHGX 310855 AAA
TAFIAH
TAF AMD
KIAH 310855Z 3109/0112 18003KT P6SM SCT250
      TEMPO 3111/3115 SCT007 OVC015
     FM311500 19007KT P6SM BKN015 OVC025
     FM311700 19009KT P6SM BKN035 BKN250
     FM010400 18005KT P6SM SCT025 OVC250=



000
FTUS44 KHGX 310520
TAFIAH
TAF
KIAH 310520Z 3106/0112 18006KT P6SM BKN250
     FM310700 17005KT P6SM SCT015 BKN025
     FM310900 17003KT P6SM SCT007 OVC015
     FM311500 19007KT P6SM BKN015 OVC025
     FM311700 19009KT P6SM BKN035 BKN250
     FM010400 18005KT P6SM SCT025 OVC250=



000
FTUS44 KHGX 310520
TAFIAH
TAF
KIAH 310520Z 3106/0112 18006KT P6SM BKN250
     FM310700 17005KT P6SM SCT015 BKN025
     FM310900 17003KT P6SM SCT007 OVC015
     FM311500 19007KT P6SM BKN015 OVC025
     FM311700 19009KT P6SM BKN035 BKN250
     FM010400 18005KT P6SM SCT025 OVC250=



000
FTUS44 KHGX 310520
TAFHOU
TAF
KHOU 310520Z 3106/0106 18006KT P6SM BKN250
     FM310800 17005KT P6SM BKN025
     FM311000 18003KT P6SM MIFG SCT007 OVC015
     FM311500 20007KT P6SM BKN025
     FM311700 19007KT P6SM SCT035 BKN250
     FM010200 17006KT P6SM OVC250=



000
FTUS44 KHGX 310520
TAFCLL
TAF
KCLL 310520Z 3106/0106 18009KT P6SM BKN250
      TEMPO 3107/3109 BKN018
     FM310900 17005KT P6SM SCT007 OVC015
     FM311600 19009KT P6SM BKN015 OVC025
     FM311800 19007KT P6SM BKN035 BKN250
     FM010200 17006KT P6SM OVC250=



000
FTUS44 KHGX 310520
TAFLBX
TAF
KLBX 310520Z 3106/0106 18005KT P6SM FEW025 BKN250
      TEMPO 3106/3107 BKN025 BKN250
     FM310700 17005KT 6SM BR BKN025
     FM310900 17003KT 4SM BR SCT007 OVC015
      TEMPO 3109/3113 1/2SM FG OVC003
     FM311600 20009KT P6SM BKN020 BKN250
     FM311800 19007KT P6SM SCT035 BKN250
     FM010200 17006KT P6SM OVC250=



000
FTUS44 KHGX 310520
TAFGLS
TAF
KGLS 310520Z 3106/0106 18006KT P6SM SCT015 SCT250
     FM311500 18008KT P6SM FEW020 BKN250
     FM010100 16010KT P6SM SCT020 OVC250=



000
FTUS44 KHGX 310520
TAFCXO
TAF
KCXO 310520Z 3106/0106 19007KT P6SM BKN250
     FM310700 17004KT P6SM SCT015 BKN025
     FM310900 17003KT 4SM BR SCT007 OVC015
      TEMPO 3109/3113 1/2SM FG OVC007
     FM311500 19005KT P6SM OVC025
     FM311800 19007KT P6SM BKN035 BKN250
     FM010200 17006KT P6SM OVC250=



000
FTUS44 KHGX 310520
TAFHOU
TAF
KHOU 310520Z 3106/0106 18006KT P6SM BKN250
     FM310800 17005KT P6SM BKN025
     FM311000 18003KT P6SM MIFG SCT007 OVC015
     FM311500 20007KT P6SM BKN025
     FM311700 19007KT P6SM SCT035 BKN250
     FM010200 17006KT P6SM OVC250=



000
FTUS44 KHGX 310520
TAFCLL
TAF
KCLL 310520Z 3106/0106 18009KT P6SM BKN250
      TEMPO 3107/3109 BKN018
     FM310900 17005KT P6SM SCT007 OVC015
     FM311600 19009KT P6SM BKN015 OVC025
     FM311800 19007KT P6SM BKN035 BKN250
     FM010200 17006KT P6SM OVC250=



000
FTUS44 KHGX 310520
TAFLBX
TAF
KLBX 310520Z 3106/0106 18005KT P6SM FEW025 BKN250
      TEMPO 3106/3107 BKN025 BKN250
     FM310700 17005KT 6SM BR BKN025
     FM310900 17003KT 4SM BR SCT007 OVC015
      TEMPO 3109/3113 1/2SM FG OVC003
     FM311600 20009KT P6SM BKN020 BKN250
     FM311800 19007KT P6SM SCT035 BKN250
     FM010200 17006KT P6SM OVC250=



000
FTUS44 KHGX 310520
TAFLBX
TAF
KLBX 310520Z 3106/0106 18005KT P6SM FEW025 BKN250
      TEMPO 3106/3107 BKN025 BKN250
     FM310700 17005KT 6SM BR BKN025
     FM310900 17003KT 4SM BR SCT007 OVC015
      TEMPO 3109/3113 1/2SM FG OVC003
     FM311600 20009KT P6SM BKN020 BKN250
     FM311800 19007KT P6SM SCT035 BKN250
     FM010200 17006KT P6SM OVC250=



000
FTUS44 KHGX 310520
TAFCXO
TAF
KCXO 310520Z 3106/0106 19007KT P6SM BKN250
     FM310700 17004KT P6SM SCT015 BKN025
     FM310900 17003KT 4SM BR SCT007 OVC015
      TEMPO 3109/3113 1/2SM FG OVC007
     FM311500 19005KT P6SM OVC025
     FM311800 19007KT P6SM BKN035 BKN250
     FM010200 17006KT P6SM OVC250=



000
FTUS44 KHGX 310520
TAFSGR
TAF
KSGR 310520Z 3106/0106 17007KT P6SM FEW025 BKN250
     FM310700 17004KT P6SM SCT015 BKN025
     FM310900 18004KT 3SM BR SCT007 OVC015
      TEMPO 3110/3112 1SM BR
     FM311600 20009KT P6SM SCT020 BKN025
     FM311700 19007KT P6SM SCT035 BKN250
     FM010200 17006KT P6SM OVC250=



000
FTUS44 KHGX 310520
TAFIAH
TAF
KIAH 310520Z 3106/0112 18006KT P6SM BKN250
     FM310700 17005KT P6SM SCT015 BKN025
     FM310900 17003KT P6SM SCT007 OVC015
     FM311500 19007KT P6SM BKN015 OVC025
     FM311700 19009KT P6SM BKN035 BKN250
     FM010400 18005KT P6SM SCT025 OVC250=



000
FTUS44 KHGX 310520
TAFUTS
TAF
KUTS 310520Z 3106/0106 17004KT P6SM BKN250
     FM310730 17005KT P6SM SCT015 BKN025
     FM310900 17005KT 4SM BR SCT007 OVC015
     FM311500 20011KT P6SM OVC020
     FM311800 19007KT P6SM BKN035 BKN250
     FM010200 17006KT P6SM OVC250=



000
FTUS44 KHGX 310520
TAFGLS
TAF
KGLS 310520Z 3106/0106 18006KT P6SM SCT015 SCT250
     FM311500 18008KT P6SM FEW020 BKN250
     FM010100 16010KT P6SM SCT020 OVC250=



000
FTUS44 KHGX 310520
TAFUTS
TAF
KUTS 310520Z 3106/0106 17004KT P6SM BKN250
     FM310730 17005KT P6SM SCT015 BKN025
     FM310900 17005KT 4SM BR SCT007 OVC015
     FM311500 20011KT P6SM OVC020
     FM311800 19007KT P6SM BKN035 BKN250
     FM010200 17006KT P6SM OVC250=



000
FTUS44 KHGX 310520
TAFCLL
TAF
KCLL 310520Z 3106/0106 18009KT P6SM BKN250
      TEMPO 3107/3109 BKN018
     FM310900 17005KT P6SM SCT007 OVC015
     FM311600 19009KT P6SM BKN015 OVC025
     FM311800 19007KT P6SM BKN035 BKN250
     FM010200 17006KT P6SM OVC250=



000
FTUS44 KHGX 310520
TAFSGR
TAF
KSGR 310520Z 3106/0106 17007KT P6SM FEW025 BKN250
     FM310700 17004KT P6SM SCT015 BKN025
     FM310900 18004KT 3SM BR SCT007 OVC015
      TEMPO 3110/3112 1SM BR
     FM311600 20009KT P6SM SCT020 BKN025
     FM311700 19007KT P6SM SCT035 BKN250
     FM010200 17006KT P6SM OVC250=



000
FTUS44 KHGX 310520
TAFIAH
TAF
KIAH 310520Z 3106/0112 18006KT P6SM BKN250
     FM310700 17005KT P6SM SCT015 BKN025
     FM310900 17003KT P6SM SCT007 OVC015
     FM311500 19007KT P6SM BKN015 OVC025
     FM311700 19009KT P6SM BKN035 BKN250
     FM010400 18005KT P6SM SCT025 OVC250=



000
FTUS44 KHGX 310520
TAFCXO
TAF
KCXO 310520Z 3106/0106 19007KT P6SM BKN250
     FM310700 17004KT P6SM SCT015 BKN025
     FM310900 17003KT 4SM BR SCT007 OVC015
      TEMPO 3109/3113 1/2SM FG OVC007
     FM311500 19005KT P6SM OVC025
     FM311800 19007KT P6SM BKN035 BKN250
     FM010200 17006KT P6SM OVC250=



000
FTUS44 KHGX 310520
TAFLBX
TAF
KLBX 310520Z 3106/0106 18005KT P6SM FEW025 BKN250
      TEMPO 3106/3107 BKN025 BKN250
     FM310700 17005KT 6SM BR BKN025
     FM310900 17003KT 4SM BR SCT007 OVC015
      TEMPO 3109/3113 1/2SM FG OVC003
     FM311600 20009KT P6SM BKN020 BKN250
     FM311800 19007KT P6SM SCT035 BKN250
     FM010200 17006KT P6SM OVC250=



000
FTUS44 KHGX 310520
TAFHOU
TAF
KHOU 310520Z 3106/0106 18006KT P6SM BKN250
     FM310800 17005KT P6SM BKN025
     FM311000 18003KT P6SM MIFG SCT007 OVC015
     FM311500 20007KT P6SM BKN025
     FM311700 19007KT P6SM SCT035 BKN250
     FM010200 17006KT P6SM OVC250=



000
FTUS44 KHGX 310520
TAFUTS
TAF
KUTS 310520Z 3106/0106 17004KT P6SM BKN250
     FM310730 17005KT P6SM SCT015 BKN025
     FM310900 17005KT 4SM BR SCT007 OVC015
     FM311500 20011KT P6SM OVC020
     FM311800 19007KT P6SM BKN035 BKN250
     FM010200 17006KT P6SM OVC250=



000
FTUS44 KHGX 310520
TAFSGR
TAF
KSGR 310520Z 3106/0106 17007KT P6SM FEW025 BKN250
     FM310700 17004KT P6SM SCT015 BKN025
     FM310900 18004KT 3SM BR SCT007 OVC015
      TEMPO 3110/3112 1SM BR
     FM311600 20009KT P6SM SCT020 BKN025
     FM311700 19007KT P6SM SCT035 BKN250
     FM010200 17006KT P6SM OVC250=



000
FTUS44 KHGX 310520
TAFCLL
TAF
KCLL 310520Z 3106/0106 18009KT P6SM BKN250
      TEMPO 3107/3109 BKN018
     FM310900 17005KT P6SM SCT007 OVC015
     FM311600 19009KT P6SM BKN015 OVC025
     FM311800 19007KT P6SM BKN035 BKN250
     FM010200 17006KT P6SM OVC250=



000
FTUS44 KHGX 310520
TAFGLS
TAF
KGLS 310520Z 3106/0106 18006KT P6SM SCT015 SCT250
     FM311500 18008KT P6SM FEW020 BKN250
     FM010100 16010KT P6SM SCT020 OVC250=



000
FTUS44 KHGX 310520
TAFHOU
TAF
KHOU 310520Z 3106/0106 18006KT P6SM BKN250
     FM310800 17005KT P6SM BKN025
     FM311000 18003KT P6SM MIFG SCT007 OVC015
     FM311500 20007KT P6SM BKN025
     FM311700 19007KT P6SM SCT035 BKN250
     FM010200 17006KT P6SM OVC250=



000
FTUS44 KHGX 310520
TAFSGR
TAF
KSGR 310520Z 3106/0106 17007KT P6SM FEW025 BKN250
     FM310700 17004KT P6SM SCT015 BKN025
     FM310900 18004KT 3SM BR SCT007 OVC015
      TEMPO 3110/3112 1SM BR
     FM311600 20009KT P6SM SCT020 BKN025
     FM311700 19007KT P6SM SCT035 BKN250
     FM010200 17006KT P6SM OVC250=



000
FTUS44 KHGX 310520
TAFCXO
TAF
KCXO 310520Z 3106/0106 19007KT P6SM BKN250
     FM310700 17004KT P6SM SCT015 BKN025
     FM310900 17003KT 4SM BR SCT007 OVC015
      TEMPO 3109/3113 1/2SM FG OVC007
     FM311500 19005KT P6SM OVC025
     FM311800 19007KT P6SM BKN035 BKN250
     FM010200 17006KT P6SM OVC250=



000
FTUS44 KHGX 310402 AAA
TAFLBX
TAF AMD
KLBX 310402Z 3104/3124 18006KT P6SM BKN250
      TEMPO 3106/3107 BKN025 BKN250
     FM310700 17005KT 6SM BR BKN025
     FM310900 17003KT 4SM BR SCT007 OVC015
      TEMPO 3109/3113 1/2SM FG OVC003
     FM311600 20009KT P6SM BKN020 BKN250
     FM311800 19007KT P6SM SCT035 BKN250=



000
FTUS44 KHGX 310402 AAA
TAFLBX
TAF AMD
KLBX 310402Z 3104/3124 18006KT P6SM BKN250
      TEMPO 3106/3107 BKN025 BKN250
     FM310700 17005KT 6SM BR BKN025
     FM310900 17003KT 4SM BR SCT007 OVC015
      TEMPO 3109/3113 1/2SM FG OVC003
     FM311600 20009KT P6SM BKN020 BKN250
     FM311800 19007KT P6SM SCT035 BKN250=



000
FTUS44 KHGX 310402 AAA
TAFLBX
TAF AMD
KLBX 310402Z 3104/3124 18006KT P6SM BKN250
      TEMPO 3106/3107 BKN025 BKN250
     FM310700 17005KT 6SM BR BKN025
     FM310900 17003KT 4SM BR SCT007 OVC015
      TEMPO 3109/3113 1/2SM FG OVC003
     FM311600 20009KT P6SM BKN020 BKN250
     FM311800 19007KT P6SM SCT035 BKN250=



000
FTUS44 KHGX 310402 AAA
TAFLBX
TAF AMD
KLBX 310402Z 3104/3124 18006KT P6SM BKN250
      TEMPO 3106/3107 BKN025 BKN250
     FM310700 17005KT 6SM BR BKN025
     FM310900 17003KT 4SM BR SCT007 OVC015
      TEMPO 3109/3113 1/2SM FG OVC003
     FM311600 20009KT P6SM BKN020 BKN250
     FM311800 19007KT P6SM SCT035 BKN250=



000
FTUS44 KHGX 310400 AAA
TAFHOU
TAF AMD
KHOU 310400Z 3104/3124 18006KT P6SM BKN250
     FM310700 17005KT P6SM SCT015 BKN025
     FM310900 18003KT P6SM MIFG SCT007 OVC015
     FM311500 20007KT P6SM BKN025
     FM311700 19007KT P6SM SCT035 BKN250=



000
FTUS44 KHGX 310400 AAA
TAFIAH
TAF AMD
KIAH 310400Z 3104/0106 18006KT P6SM BKN250
     FM310700 17005KT P6SM SCT015 BKN025
     FM310900 17003KT P6SM SCT007 OVC015
     FM311500 19007KT P6SM BKN015 OVC025
     FM311700 19009KT P6SM BKN035 BKN250
     FM010400 18005KT P6SM SCT025 OVC250=



000
FTUS44 KHGX 310400 AAA
TAFSGR
TAF AMD
KSGR 310400Z 3104/3124 17007KT P6SM BKN250
     FM310700 17004KT P6SM SCT015 BKN025
     FM310900 18004KT 3SM BR SCT007 OVC015
      TEMPO 3110/3112 1SM BR
     FM311600 20009KT P6SM SCT020 BKN025
     FM311700 19007KT P6SM SCT035 BKN250=



000
FTUS44 KHGX 310400 AAA
TAFIAH
TAF AMD
KIAH 310400Z 3104/0106 18006KT P6SM BKN250
     FM310700 17005KT P6SM SCT015 BKN025
     FM310900 17003KT P6SM SCT007 OVC015
     FM311500 19007KT P6SM BKN015 OVC025
     FM311700 19009KT P6SM BKN035 BKN250
     FM010400 18005KT P6SM SCT025 OVC250=



000
FTUS44 KHGX 310400 AAA
TAFSGR
TAF AMD
KSGR 310400Z 3104/3124 17007KT P6SM BKN250
     FM310700 17004KT P6SM SCT015 BKN025
     FM310900 18004KT 3SM BR SCT007 OVC015
      TEMPO 3110/3112 1SM BR
     FM311600 20009KT P6SM SCT020 BKN025
     FM311700 19007KT P6SM SCT035 BKN250=



000
FTUS44 KHGX 310400 AAA
TAFHOU
TAF AMD
KHOU 310400Z 3104/3124 18006KT P6SM BKN250
     FM310700 17005KT P6SM SCT015 BKN025
     FM310900 18003KT P6SM MIFG SCT007 OVC015
     FM311500 20007KT P6SM BKN025
     FM311700 19007KT P6SM SCT035 BKN250=



000
FTUS44 KHGX 310346 AAA
TAFCLL
TAF AMD
KCLL 310346Z 3104/3124 18009KT P6SM BKN250
      TEMPO 3107/3109 BKN018
     FM310900 17005KT P6SM SCT007 OVC015
     FM311600 19009KT P6SM BKN015 OVC025
     FM311800 19007KT P6SM BKN035 BKN250=



000
FTUS44 KHGX 310346 AAA
TAFUTS
TAF AMD
KUTS 310346Z 3104/3124 18004KT P6SM BKN250
     FM310600 17004KT P6SM SCT015 BKN025
     FM310900 17005KT 4SM BR SCT007 OVC015
     FM311500 20011KT P6SM OVC020
     FM311800 19007KT P6SM BKN035 BKN250=



000
FTUS44 KHGX 310346 AAA
TAFCXO
TAF AMD
KCXO 310346Z 3104/3124 19007KT P6SM BKN250
     FM310700 17004KT P6SM SCT015 BKN025
     FM310900 17003KT 4SM BR SCT007 OVC015
      TEMPO 3109/3113 1/2SM FG OVC007
     FM311500 19005KT P6SM OVC025
     FM311800 19007KT P6SM BKN035 BKN250=



000
FTUS44 KHGX 310346 AAA
TAFUTS
TAF AMD
KUTS 310346Z 3104/3124 18004KT P6SM BKN250
     FM310600 17004KT P6SM SCT015 BKN025
     FM310900 17005KT 4SM BR SCT007 OVC015
     FM311500 20011KT P6SM OVC020
     FM311800 19007KT P6SM BKN035 BKN250=



000
FTUS44 KHGX 310346 AAA
TAFCXO
TAF AMD
KCXO 310346Z 3104/3124 19007KT P6SM BKN250
     FM310700 17004KT P6SM SCT015 BKN025
     FM310900 17003KT 4SM BR SCT007 OVC015
      TEMPO 3109/3113 1/2SM FG OVC007
     FM311500 19005KT P6SM OVC025
     FM311800 19007KT P6SM BKN035 BKN250=



000
FTUS44 KHGX 310346 AAA
TAFCLL
TAF AMD
KCLL 310346Z 3104/3124 18009KT P6SM BKN250
      TEMPO 3107/3109 BKN018
     FM310900 17005KT P6SM SCT007 OVC015
     FM311600 19009KT P6SM BKN015 OVC025
     FM311800 19007KT P6SM BKN035 BKN250=



000
FTUS44 KHGX 302337
TAFLBX
TAF
KLBX 302337Z 3100/3124 19013KT P6SM FEW035 SCT250
     FM310300 17004KT P6SM BKN025
     FM310900 17003KT 4SM BR SCT007 OVC015
      TEMPO 3109/3113 1/2SM FG OVC003
     FM311600 20009KT P6SM BKN020 BKN250
     FM311800 19007KT P6SM SCT035 BKN250=



000
FTUS44 KHGX 302337
TAFGLS
TAF
KGLS 302337Z 3100/3124 17007KT P6SM SKC
     FM310600 18006KT P6SM SCT015
     FM311500 18008KT P6SM FEW020 BKN250=



000
FTUS44 KHGX 302337
TAFIAH
TAF
KIAH 302337Z 3100/0106 20005KT P6SM FEW040 SCT250
     FM310500 17005KT P6SM SCT015 BKN025
     FM310900 17003KT P6SM SCT007 OVC015
     FM311500 19007KT P6SM BKN015 OVC025
     FM311700 19009KT P6SM BKN035 BKN250
     FM010400 18005KT P6SM SCT025 OVC250=



000
FTUS44 KHGX 302337
TAFUTS
TAF
KUTS 302337Z 3100/3124 18009KT P6SM SCT035
     FM310500 17006KT P6SM SCT015 BKN025
     FM310900 17005KT 4SM BR SCT007 OVC015
     FM311500 20011KT P6SM OVC020
     FM311800 19007KT P6SM BKN035 BKN250=



000
FTUS44 KHGX 302337
TAFCLL
TAF
KCLL 302337Z 3100/3124 18011KT P6SM SCT035
     FM310400 17006KT P6SM SCT015 BKN025
     FM310900 17005KT P6SM SCT007 OVC015
     FM311600 19009KT P6SM BKN015 OVC025
     FM311800 19007KT P6SM BKN035 BKN250=



000
FTUS44 KHGX 302337
TAFSGR
TAF
KSGR 302337Z 3100/3124 18012KT P6SM SCT035
     FM310500 17004KT P6SM SCT015 BKN025
     FM310900 18004KT 3SM BR SCT007 OVC015
      TEMPO 3110/3112 1SM BR
     FM311600 20009KT P6SM SCT020 BKN025
     FM311700 19007KT P6SM SCT035 BKN250=



000
FTUS44 KHGX 302337
TAFCXO
TAF
KCXO 302337Z 3100/3124 18012KT P6SM SCT035
     FM310500 17003KT 6SM BR SCT015 BKN025
     FM310900 17003KT 4SM BR SCT007 OVC015
      TEMPO 3109/3113 1/2SM FG OVC007
     FM311500 19005KT P6SM OVC025
     FM311800 19007KT P6SM BKN035 BKN250=



000
FTUS44 KHGX 302337
TAFHOU
TAF
KHOU 302337Z 3100/3124 17009KT P6SM FEW040 SCT250
     FM310500 17005KT P6SM SCT015 BKN025
     FM310900 18003KT P6SM MIFG SCT007 OVC015
     FM311500 20007KT P6SM BKN025
     FM311700 19007KT P6SM SCT035 BKN250=



000
FTUS44 KHGX 302337
TAFCLL
TAF
KCLL 302337Z 3100/3124 18011KT P6SM SCT035
     FM310400 17006KT P6SM SCT015 BKN025
     FM310900 17005KT P6SM SCT007 OVC015
     FM311600 19009KT P6SM BKN015 OVC025
     FM311800 19007KT P6SM BKN035 BKN250=



000
FTUS44 KHGX 302337
TAFUTS
TAF
KUTS 302337Z 3100/3124 18009KT P6SM SCT035
     FM310500 17006KT P6SM SCT015 BKN025
     FM310900 17005KT 4SM BR SCT007 OVC015
     FM311500 20011KT P6SM OVC020
     FM311800 19007KT P6SM BKN035 BKN250=



000
FTUS44 KHGX 302337
TAFCXO
TAF
KCXO 302337Z 3100/3124 18012KT P6SM SCT035
     FM310500 17003KT 6SM BR SCT015 BKN025
     FM310900 17003KT 4SM BR SCT007 OVC015
      TEMPO 3109/3113 1/2SM FG OVC007
     FM311500 19005KT P6SM OVC025
     FM311800 19007KT P6SM BKN035 BKN250=



000
FTUS44 KHGX 302337
TAFLBX
TAF
KLBX 302337Z 3100/3124 19013KT P6SM FEW035 SCT250
     FM310300 17004KT P6SM BKN025
     FM310900 17003KT 4SM BR SCT007 OVC015
      TEMPO 3109/3113 1/2SM FG OVC003
     FM311600 20009KT P6SM BKN020 BKN250
     FM311800 19007KT P6SM SCT035 BKN250=



000
FTUS44 KHGX 302337
TAFIAH
TAF
KIAH 302337Z 3100/0106 20005KT P6SM FEW040 SCT250
     FM310500 17005KT P6SM SCT015 BKN025
     FM310900 17003KT P6SM SCT007 OVC015
     FM311500 19007KT P6SM BKN015 OVC025
     FM311700 19009KT P6SM BKN035 BKN250
     FM010400 18005KT P6SM SCT025 OVC250=



000
FTUS44 KHGX 302337
TAFHOU
TAF
KHOU 302337Z 3100/3124 17009KT P6SM FEW040 SCT250
     FM310500 17005KT P6SM SCT015 BKN025
     FM310900 18003KT P6SM MIFG SCT007 OVC015
     FM311500 20007KT P6SM BKN025
     FM311700 19007KT P6SM SCT035 BKN250=



000
FTUS44 KHGX 302337
TAFGLS
TAF
KGLS 302337Z 3100/3124 17007KT P6SM SKC
     FM310600 18006KT P6SM SCT015
     FM311500 18008KT P6SM FEW020 BKN250=



000
FTUS44 KHGX 302337
TAFSGR
TAF
KSGR 302337Z 3100/3124 18012KT P6SM SCT035
     FM310500 17004KT P6SM SCT015 BKN025
     FM310900 18004KT 3SM BR SCT007 OVC015
      TEMPO 3110/3112 1SM BR
     FM311600 20009KT P6SM SCT020 BKN025
     FM311700 19007KT P6SM SCT035 BKN250=



000
FTUS44 KHGX 302057 AAA
TAFHOU
TAF AMD
KHOU 302057Z 3021/3118 17009KT P6SM SCT045 SCT250
     FM310500 17005KT P6SM SCT015 BKN025
     FM310900 18003KT 6SM BR SCT007 OVC015
     FM311600 20007KT P6SM BKN025=



000
FTUS44 KHGX 302057 AAA
TAFIAH
TAF AMD
KIAH 302057Z 3021/3124 22008KT P6SM SCT045 SCT250
     FM310500 17005KT P6SM SCT015 BKN025
     FM310900 17003KT P6SM MIFG SCT007 OVC015
     FM311500 19007KT P6SM BKN015 OVC025=



000
FTUS44 KHGX 301812 AAA
TAFUTS
TAF AMD
KUTS 301812Z 3018/3118 18009KT P6SM BKN035
     FM310500 17006KT P6SM SCT015 BKN025
     FM310900 17005KT 4SM BR SCT007 OVC015
     FM311500 20011KT P6SM OVC020=



000
FTUS44 KHGX 301812 AAA
TAFUTS
TAF AMD
KUTS 301812Z 3018/3118 18009KT P6SM BKN035
     FM310500 17006KT P6SM SCT015 BKN025
     FM310900 17005KT 4SM BR SCT007 OVC015
     FM311500 20011KT P6SM OVC020=



000
FTUS44 KHGX 301728
TAFCXO
TAF
KCXO 301728Z 3018/3118 18012KT P6SM BKN035
     FM310500 17003KT 6SM BR SCT015 BKN025
     FM310900 17003KT 4SM BR SCT007 OVC015
      TEMPO 3109/3113 1/2SM FG OVC007
     FM311500 19005KT P6SM OVC025=



000
FTUS44 KHGX 301728
TAFLBX
TAF
KLBX 301728Z 3018/3118 19013KT P6SM BKN035
     FM302000 16015KT P6SM SCT040
     FM310300 17004KT P6SM SCT015 BKN025
     FM310900 17003KT 2SM BR SCT007 OVC015
      TEMPO 3109/3113 1/2SM FG OVC007
     FM311600 20009KT P6SM BKN020 BKN250=



000
FTUS44 KHGX 301728
TAFLBX
TAF
KLBX 301728Z 3018/3118 19013KT P6SM BKN035
     FM302000 16015KT P6SM SCT040
     FM310300 17004KT P6SM SCT015 BKN025
     FM310900 17003KT 2SM BR SCT007 OVC015
      TEMPO 3109/3113 1/2SM FG OVC007
     FM311600 20009KT P6SM BKN020 BKN250=



000
FTUS44 KHGX 301728
TAFCXO
TAF
KCXO 301728Z 3018/3118 18012KT P6SM BKN035
     FM310500 17003KT 6SM BR SCT015 BKN025
     FM310900 17003KT 4SM BR SCT007 OVC015
      TEMPO 3109/3113 1/2SM FG OVC007
     FM311500 19005KT P6SM OVC025=



000
FTUS44 KHGX 301728
TAFIAH
TAF
KIAH 301728Z 3018/3124 18010G14KT P6SM BKN035
     FM310500 17005KT P6SM SCT015 BKN025
     FM310900 17003KT P6SM MIFG SCT007 OVC015
     FM311500 19007KT P6SM BKN015 OVC025=



000
FTUS44 KHGX 301728
TAFSGR
TAF
KSGR 301728Z 3018/3118 18012KT P6SM BKN035
     FM310500 17004KT P6SM SCT015 BKN025
     FM310900 18004KT 3SM BR SCT007 OVC015
     FM311600 20009KT P6SM SCT020 BKN025=



000
FTUS44 KHGX 301728
TAFGLS
TAF
KGLS 301728Z 3018/3118 17007KT P6SM SKC
     FM310600 18006KT P6SM SCT015
     FM311500 18008KT P6SM FEW020 BKN250=



000
FTUS44 KHGX 301728
TAFUTS
TAF
KUTS 301728Z 3018/3118 22007G18KT P6SM BKN035
     FM310500 17006KT P6SM SCT015 BKN025
     FM310900 17005KT 4SM BR SCT007 OVC015
     FM311500 20011KT P6SM OVC020=



000
FTUS44 KHGX 301728
TAFSGR
TAF
KSGR 301728Z 3018/3118 18012KT P6SM BKN035
     FM310500 17004KT P6SM SCT015 BKN025
     FM310900 18004KT 3SM BR SCT007 OVC015
     FM311600 20009KT P6SM SCT020 BKN025=



000
FTUS44 KHGX 301728
TAFCLL
TAF
KCLL 301728Z 3018/3118 18011KT P6SM BKN035
     FM310400 17006KT P6SM SCT015 BKN025
     FM310900 17005KT P6SM SCT007 OVC015
     FM311600 19009KT P6SM BKN015 OVC025=



000
FTUS44 KHGX 301728
TAFSGR
TAF
KSGR 301728Z 3018/3118 18012KT P6SM BKN035
     FM310500 17004KT P6SM SCT015 BKN025
     FM310900 18004KT 3SM BR SCT007 OVC015
     FM311600 20009KT P6SM SCT020 BKN025=



000
FTUS44 KHGX 301728
TAFLBX
TAF
KLBX 301728Z 3018/3118 19013KT P6SM BKN035
     FM302000 16015KT P6SM SCT040
     FM310300 17004KT P6SM SCT015 BKN025
     FM310900 17003KT 2SM BR SCT007 OVC015
      TEMPO 3109/3113 1/2SM FG OVC007
     FM311600 20009KT P6SM BKN020 BKN250=



000
FTUS44 KHGX 301728
TAFHOU
TAF
KHOU 301728Z 3018/3118 21008KT P6SM BKN035
     FM310500 17005KT P6SM SCT015 BKN025
     FM310900 18003KT 6SM BR SCT007 OVC015
     FM311600 20007KT P6SM BKN025=



000
FTUS44 KHGX 301728
TAFUTS
TAF
KUTS 301728Z 3018/3118 22007G18KT P6SM BKN035
     FM310500 17006KT P6SM SCT015 BKN025
     FM310900 17005KT 4SM BR SCT007 OVC015
     FM311500 20011KT P6SM OVC020=



000
FTUS44 KHGX 301728
TAFCXO
TAF
KCXO 301728Z 3018/3118 18012KT P6SM BKN035
     FM310500 17003KT 6SM BR SCT015 BKN025
     FM310900 17003KT 4SM BR SCT007 OVC015
      TEMPO 3109/3113 1/2SM FG OVC007
     FM311500 19005KT P6SM OVC025=



000
FTUS44 KHGX 301728
TAFGLS
TAF
KGLS 301728Z 3018/3118 17007KT P6SM SKC
     FM310600 18006KT P6SM SCT015
     FM311500 18008KT P6SM FEW020 BKN250=



000
FTUS44 KHGX 301728
TAFHOU
TAF
KHOU 301728Z 3018/3118 21008KT P6SM BKN035
     FM310500 17005KT P6SM SCT015 BKN025
     FM310900 18003KT 6SM BR SCT007 OVC015
     FM311600 20007KT P6SM BKN025=



000
FTUS44 KHGX 301728
TAFIAH
TAF
KIAH 301728Z 3018/3124 18010G14KT P6SM BKN035
     FM310500 17005KT P6SM SCT015 BKN025
     FM310900 17003KT P6SM MIFG SCT007 OVC015
     FM311500 19007KT P6SM BKN015 OVC025=



000
FTUS44 KHGX 301728
TAFGLS
TAF
KGLS 301728Z 3018/3118 17007KT P6SM SKC
     FM310600 18006KT P6SM SCT015
     FM311500 18008KT P6SM FEW020 BKN250=



000
FTUS44 KHGX 301728
TAFGLS
TAF
KGLS 301728Z 3018/3118 17007KT P6SM SKC
     FM310600 18006KT P6SM SCT015
     FM311500 18008KT P6SM FEW020 BKN250=



000
FTUS44 KHGX 301728
TAFHOU
TAF
KHOU 301728Z 3018/3118 21008KT P6SM BKN035
     FM310500 17005KT P6SM SCT015 BKN025
     FM310900 18003KT 6SM BR SCT007 OVC015
     FM311600 20007KT P6SM BKN025=



000
FTUS44 KHGX 301728
TAFCLL
TAF
KCLL 301728Z 3018/3118 18011KT P6SM BKN035
     FM310400 17006KT P6SM SCT015 BKN025
     FM310900 17005KT P6SM SCT007 OVC015
     FM311600 19009KT P6SM BKN015 OVC025=



000
FTUS44 KHGX 301728
TAFSGR
TAF
KSGR 301728Z 3018/3118 18012KT P6SM BKN035
     FM310500 17004KT P6SM SCT015 BKN025
     FM310900 18004KT 3SM BR SCT007 OVC015
     FM311600 20009KT P6SM SCT020 BKN025=



000
FTUS44 KHGX 301728
TAFHOU
TAF
KHOU 301728Z 3018/3118 21008KT P6SM BKN035
     FM310500 17005KT P6SM SCT015 BKN025
     FM310900 18003KT 6SM BR SCT007 OVC015
     FM311600 20007KT P6SM BKN025=



000
FTUS44 KHGX 301728
TAFLBX
TAF
KLBX 301728Z 3018/3118 19013KT P6SM BKN035
     FM302000 16015KT P6SM SCT040
     FM310300 17004KT P6SM SCT015 BKN025
     FM310900 17003KT 2SM BR SCT007 OVC015
      TEMPO 3109/3113 1/2SM FG OVC007
     FM311600 20009KT P6SM BKN020 BKN250=



000
FTUS44 KHGX 301728
TAFIAH
TAF
KIAH 301728Z 3018/3124 18010G14KT P6SM BKN035
     FM310500 17005KT P6SM SCT015 BKN025
     FM310900 17003KT P6SM MIFG SCT007 OVC015
     FM311500 19007KT P6SM BKN015 OVC025=



000
FTUS44 KHGX 301728
TAFCXO
TAF
KCXO 301728Z 3018/3118 18012KT P6SM BKN035
     FM310500 17003KT 6SM BR SCT015 BKN025
     FM310900 17003KT 4SM BR SCT007 OVC015
      TEMPO 3109/3113 1/2SM FG OVC007
     FM311500 19005KT P6SM OVC025=



000
FTUS44 KHGX 301456 AAA
TAFIAH
TAF AMD
KIAH 301456Z 3015/3118 19005KT P6SM SCT030 BKN250
     FM301800 18008KT P6SM SCT035
     FM310500 17005KT P6SM SCT015 BKN025
     FM310900 17003KT 6SM BR SCT007 OVC015
     FM311500 19007KT P6SM BKN015 OVC025=



000
FTUS44 KHGX 301456 AAA
TAFHOU
TAF AMD
KHOU 301456Z 3015/3112 19007KT P6SM FEW025 SCT250
     FM301800 18009KT P6SM SCT035
     FM310500 18003KT P6SM SCT015 BKN025
     FM310900 18002KT 6SM BR SCT007 OVC015=



000
FTUS44 KHGX 301456 AAA
TAFIAH
TAF AMD
KIAH 301456Z 3015/3118 19005KT P6SM SCT030 BKN250
     FM301800 18008KT P6SM SCT035
     FM310500 17005KT P6SM SCT015 BKN025
     FM310900 17003KT 6SM BR SCT007 OVC015
     FM311500 19007KT P6SM BKN015 OVC025=



000
FTUS44 KHGX 301456 AAA
TAFHOU
TAF AMD
KHOU 301456Z 3015/3112 19007KT P6SM FEW025 SCT250
     FM301800 18009KT P6SM SCT035
     FM310500 18003KT P6SM SCT015 BKN025
     FM310900 18002KT 6SM BR SCT007 OVC015=



000
FTUS44 KHGX 301314 AAB
TAFLBX
TAF AMD
KLBX 301314Z 3013/3112 VRB03KT 4SM BR BKN020
      TEMPO 3013/3014 2SM BR BKN005 OVC024
     FM301500 18006KT P6SM BKN025
     FM301800 18010KT P6SM SCT035
     FM310500 17003KT 6SM BR SCT015 BKN025
     FM310900 17003KT 2SM BR SCT007 OVC015=



000
FTUS44 KHGX 301314 AAB
TAFLBX
TAF AMD
KLBX 301314Z 3013/3112 VRB03KT 4SM BR BKN020
      TEMPO 3013/3014 2SM BR BKN005 OVC024
     FM301500 18006KT P6SM BKN025
     FM301800 18010KT P6SM SCT035
     FM310500 17003KT 6SM BR SCT015 BKN025
     FM310900 17003KT 2SM BR SCT007 OVC015=



000
FTUS44 KHGX 301314 AAB
TAFLBX
TAF AMD
KLBX 301314Z 3013/3112 VRB03KT 4SM BR BKN020
      TEMPO 3013/3014 2SM BR BKN005 OVC024
     FM301500 18006KT P6SM BKN025
     FM301800 18010KT P6SM SCT035
     FM310500 17003KT 6SM BR SCT015 BKN025
     FM310900 17003KT 2SM BR SCT007 OVC015=



000
FTUS44 KHGX 301314 AAB
TAFLBX
TAF AMD
KLBX 301314Z 3013/3112 VRB03KT 4SM BR BKN020
      TEMPO 3013/3014 2SM BR BKN005 OVC024
     FM301500 18006KT P6SM BKN025
     FM301800 18010KT P6SM SCT035
     FM310500 17003KT 6SM BR SCT015 BKN025
     FM310900 17003KT 2SM BR SCT007 OVC015=



000
FTUS44 KHGX 301202 AAA
TAFLBX
TAF AMD
KLBX 301202Z 3012/3112 VRB03KT 3SM BR SCT005 BKN024
      TEMPO 3012/3014 1/4SM FG BKN005 OVC024
     FM301500 18006KT P6SM BKN015
     FM301800 18010KT P6SM SCT035
     FM310500 17003KT 6SM BR SCT015 BKN025
     FM310900 17003KT 2SM BR SCT007 OVC015=



000
FTUS44 KHGX 301202 AAA
TAFLBX
TAF AMD
KLBX 301202Z 3012/3112 VRB03KT 3SM BR SCT005 BKN024
      TEMPO 3012/3014 1/4SM FG BKN005 OVC024
     FM301500 18006KT P6SM BKN015
     FM301800 18010KT P6SM SCT035
     FM310500 17003KT 6SM BR SCT015 BKN025
     FM310900 17003KT 2SM BR SCT007 OVC015=



000
FTUS44 KHGX 301202 AAA
TAFLBX
TAF AMD
KLBX 301202Z 3012/3112 VRB03KT 3SM BR SCT005 BKN024
      TEMPO 3012/3014 1/4SM FG BKN005 OVC024
     FM301500 18006KT P6SM BKN015
     FM301800 18010KT P6SM SCT035
     FM310500 17003KT 6SM BR SCT015 BKN025
     FM310900 17003KT 2SM BR SCT007 OVC015=



000
FTUS44 KHGX 301202 AAA
TAFLBX
TAF AMD
KLBX 301202Z 3012/3112 VRB03KT 3SM BR SCT005 BKN024
      TEMPO 3012/3014 1/4SM FG BKN005 OVC024
     FM301500 18006KT P6SM BKN015
     FM301800 18010KT P6SM SCT035
     FM310500 17003KT 6SM BR SCT015 BKN025
     FM310900 17003KT 2SM BR SCT007 OVC015=



000
FTUS44 KHGX 301120
TAFIAH
TAF
KIAH 301120Z 3012/3118 18004KT P6SM BKN012 BKN022
     FM301500 19007KT P6SM BKN020
     FM301800 18008KT P6SM SCT035
     FM310500 17005KT P6SM SCT015 BKN025
     FM310900 17003KT 6SM BR SCT007 OVC015
     FM311500 19007KT P6SM BKN015 OVC025=



000
FTUS44 KHGX 301120
TAFSGR
TAF
KSGR 301120Z 3012/3112 VRB03KT P6SM FEW005 BKN019 BKN035
      TEMPO 3012/3015 4SM BR BKN019
     FM301600 20009KT P6SM SCT025
     FM301800 18010KT P6SM SCT035
     FM310500 17004KT P6SM SCT015 BKN025
     FM310900 18004KT 3SM BR SCT007 OVC015=



000
FTUS44 KHGX 301120
TAFCLL
TAF
KCLL 301120Z 3012/3112 15004KT P6SM SCT014 BKN025
      TEMPO 3012/3015 5SM BR BKN014
     FM301500 19008KT P6SM BKN015
     FM301800 18009KT P6SM SCT035
     FM310500 17006KT P6SM SCT015 BKN025
     FM310900 17005KT 6SM BR SCT007 OVC015=



000
FTUS44 KHGX 301120
TAFCXO
TAF
KCXO 301120Z 3012/3112 19004KT P6SM SCT012 BKN035
      TEMPO 3012/3015 BKN012
     FM301500 19006KT P6SM BKN015
     FM301800 19007KT P6SM SCT035
     FM310500 17003KT 6SM BR SCT015 BKN025
     FM310900 17003KT 4SM BR SCT007 OVC015=



000
FTUS44 KHGX 301120
TAFCLL
TAF
KCLL 301120Z 3012/3112 15004KT P6SM SCT014 BKN025
      TEMPO 3012/3015 5SM BR BKN014
     FM301500 19008KT P6SM BKN015
     FM301800 18009KT P6SM SCT035
     FM310500 17006KT P6SM SCT015 BKN025
     FM310900 17005KT 6SM BR SCT007 OVC015=



000
FTUS44 KHGX 301120
TAFCLL
TAF
KCLL 301120Z 3012/3112 15004KT P6SM SCT014 BKN025
      TEMPO 3012/3015 5SM BR BKN014
     FM301500 19008KT P6SM BKN015
     FM301800 18009KT P6SM SCT035
     FM310500 17006KT P6SM SCT015 BKN025
     FM310900 17005KT 6SM BR SCT007 OVC015=



000
FTUS44 KHGX 301120
TAFSGR
TAF
KSGR 301120Z 3012/3112 VRB03KT P6SM FEW005 BKN019 BKN035
      TEMPO 3012/3015 4SM BR BKN019
     FM301600 20009KT P6SM SCT025
     FM301800 18010KT P6SM SCT035
     FM310500 17004KT P6SM SCT015 BKN025
     FM310900 18004KT 3SM BR SCT007 OVC015=



000
FTUS44 KHGX 301120
TAFGLS
TAF
KGLS 301120Z 3012/3112 17008KT P6SM FEW015 SCT025
     FM301500 17009KT P6SM SCT025
     FM310600 16006KT P6SM SCT015=



000
FTUS44 KHGX 301120
TAFCXO
TAF
KCXO 301120Z 3012/3112 19004KT P6SM SCT012 BKN035
      TEMPO 3012/3015 BKN012
     FM301500 19006KT P6SM BKN015
     FM301800 19007KT P6SM SCT035
     FM310500 17003KT 6SM BR SCT015 BKN025
     FM310900 17003KT 4SM BR SCT007 OVC015=



000
FTUS44 KHGX 301120
TAFUTS
TAF
KUTS 301120Z 3012/3112 20003KT P6SM SCT012 SCT025
      TEMPO 3012/3015 BKN012
     FM301500 19006KT P6SM BKN015
     FM301800 19007KT P6SM SCT035
     FM310500 17006KT 6SM BR SCT015 BKN025
     FM310900 17005KT 4SM BR SCT007 OVC015=



000
FTUS44 KHGX 301120
TAFUTS
TAF
KUTS 301120Z 3012/3112 20003KT P6SM SCT012 SCT025
      TEMPO 3012/3015 BKN012
     FM301500 19006KT P6SM BKN015
     FM301800 19007KT P6SM SCT035
     FM310500 17006KT 6SM BR SCT015 BKN025
     FM310900 17005KT 4SM BR SCT007 OVC015=



000
FTUS44 KHGX 301120
TAFLBX
TAF
KLBX 301120Z 3012/3112 VRB03KT 3SM BR BKN010
      TEMPO 3012/3014 1/4SM FG VV007
     FM301500 18006KT P6SM BKN015
     FM301800 18010KT P6SM SCT035
     FM310500 17003KT 6SM BR SCT015 BKN025
     FM310900 17003KT 2SM BR SCT007 OVC015=



000
FTUS44 KHGX 301120
TAFLBX
TAF
KLBX 301120Z 3012/3112 VRB03KT 3SM BR BKN010
      TEMPO 3012/3014 1/4SM FG VV007
     FM301500 18006KT P6SM BKN015
     FM301800 18010KT P6SM SCT035
     FM310500 17003KT 6SM BR SCT015 BKN025
     FM310900 17003KT 2SM BR SCT007 OVC015=



000
FTUS44 KHGX 301120
TAFUTS
TAF
KUTS 301120Z 3012/3112 20003KT P6SM SCT012 SCT025
      TEMPO 3012/3015 BKN012
     FM301500 19006KT P6SM BKN015
     FM301800 19007KT P6SM SCT035
     FM310500 17006KT 6SM BR SCT015 BKN025
     FM310900 17005KT 4SM BR SCT007 OVC015=



000
FTUS44 KHGX 301120
TAFCLL
TAF
KCLL 301120Z 3012/3112 15004KT P6SM SCT014 BKN025
      TEMPO 3012/3015 5SM BR BKN014
     FM301500 19008KT P6SM BKN015
     FM301800 18009KT P6SM SCT035
     FM310500 17006KT P6SM SCT015 BKN025
     FM310900 17005KT 6SM BR SCT007 OVC015=



000
FTUS44 KHGX 301120
TAFGLS
TAF
KGLS 301120Z 3012/3112 17008KT P6SM FEW015 SCT025
     FM301500 17009KT P6SM SCT025
     FM310600 16006KT P6SM SCT015=



000
FTUS44 KHGX 301120
TAFUTS
TAF
KUTS 301120Z 3012/3112 20003KT P6SM SCT012 SCT025
      TEMPO 3012/3015 BKN012
     FM301500 19006KT P6SM BKN015
     FM301800 19007KT P6SM SCT035
     FM310500 17006KT 6SM BR SCT015 BKN025
     FM310900 17005KT 4SM BR SCT007 OVC015=



000
FTUS44 KHGX 301120
TAFSGR
TAF
KSGR 301120Z 3012/3112 VRB03KT P6SM FEW005 BKN019 BKN035
      TEMPO 3012/3015 4SM BR BKN019
     FM301600 20009KT P6SM SCT025
     FM301800 18010KT P6SM SCT035
     FM310500 17004KT P6SM SCT015 BKN025
     FM310900 18004KT 3SM BR SCT007 OVC015=



000
FTUS44 KHGX 301120
TAFCXO
TAF
KCXO 301120Z 3012/3112 19004KT P6SM SCT012 BKN035
      TEMPO 3012/3015 BKN012
     FM301500 19006KT P6SM BKN015
     FM301800 19007KT P6SM SCT035
     FM310500 17003KT 6SM BR SCT015 BKN025
     FM310900 17003KT 4SM BR SCT007 OVC015=



000
FTUS44 KHGX 301120
TAFHOU
TAF
KHOU 301120Z 3012/3112 19003KT P6SM SCT015 SCT025
      TEMPO 3012/3015 BKN015 BKN025
     FM301600 19007KT P6SM SCT025
     FM301800 18009KT P6SM SCT035
     FM310500 18003KT P6SM SCT015 BKN025
     FM310900 18002KT 6SM BR SCT007 OVC015=



000
FTUS44 KHGX 301120
TAFCXO
TAF
KCXO 301120Z 3012/3112 19004KT P6SM SCT012 BKN035
      TEMPO 3012/3015 BKN012
     FM301500 19006KT P6SM BKN015
     FM301800 19007KT P6SM SCT035
     FM310500 17003KT 6SM BR SCT015 BKN025
     FM310900 17003KT 4SM BR SCT007 OVC015=



000
FTUS44 KHGX 301120
TAFIAH
TAF
KIAH 301120Z 3012/3118 18004KT P6SM BKN012 BKN022
     FM301500 19007KT P6SM BKN020
     FM301800 18008KT P6SM SCT035
     FM310500 17005KT P6SM SCT015 BKN025
     FM310900 17003KT 6SM BR SCT007 OVC015
     FM311500 19007KT P6SM BKN015 OVC025=



000
FTUS44 KHGX 301120
TAFSGR
TAF
KSGR 301120Z 3012/3112 VRB03KT P6SM FEW005 BKN019 BKN035
      TEMPO 3012/3015 4SM BR BKN019
     FM301600 20009KT P6SM SCT025
     FM301800 18010KT P6SM SCT035
     FM310500 17004KT P6SM SCT015 BKN025
     FM310900 18004KT 3SM BR SCT007 OVC015=



000
FTUS44 KHGX 301120
TAFLBX
TAF
KLBX 301120Z 3012/3112 VRB03KT 3SM BR BKN010
      TEMPO 3012/3014 1/4SM FG VV007
     FM301500 18006KT P6SM BKN015
     FM301800 18010KT P6SM SCT035
     FM310500 17003KT 6SM BR SCT015 BKN025
     FM310900 17003KT 2SM BR SCT007 OVC015=



000
FTUS44 KHGX 301120
TAFIAH
TAF
KIAH 301120Z 3012/3118 18004KT P6SM BKN012 BKN022
     FM301500 19007KT P6SM BKN020
     FM301800 18008KT P6SM SCT035
     FM310500 17005KT P6SM SCT015 BKN025
     FM310900 17003KT 6SM BR SCT007 OVC015
     FM311500 19007KT P6SM BKN015 OVC025=



000
FTUS44 KHGX 301120
TAFGLS
TAF
KGLS 301120Z 3012/3112 17008KT P6SM FEW015 SCT025
     FM301500 17009KT P6SM SCT025
     FM310600 16006KT P6SM SCT015=



000
FTUS44 KHGX 301120
TAFHOU
TAF
KHOU 301120Z 3012/3112 19003KT P6SM SCT015 SCT025
      TEMPO 3012/3015 BKN015 BKN025
     FM301600 19007KT P6SM SCT025
     FM301800 18009KT P6SM SCT035
     FM310500 18003KT P6SM SCT015 BKN025
     FM310900 18002KT 6SM BR SCT007 OVC015=



000
FTUS44 KHGX 301120
TAFHOU
TAF
KHOU 301120Z 3012/3112 19003KT P6SM SCT015 SCT025
      TEMPO 3012/3015 BKN015 BKN025
     FM301600 19007KT P6SM SCT025
     FM301800 18009KT P6SM SCT035
     FM310500 18003KT P6SM SCT015 BKN025
     FM310900 18002KT 6SM BR SCT007 OVC015=



000
FTUS44 KHGX 301120
TAFIAH
TAF
KIAH 301120Z 3012/3118 18004KT P6SM BKN012 BKN022
     FM301500 19007KT P6SM BKN020
     FM301800 18008KT P6SM SCT035
     FM310500 17005KT P6SM SCT015 BKN025
     FM310900 17003KT 6SM BR SCT007 OVC015
     FM311500 19007KT P6SM BKN015 OVC025=



000
FTUS44 KHGX 301120
TAFGLS
TAF
KGLS 301120Z 3012/3112 17008KT P6SM FEW015 SCT025
     FM301500 17009KT P6SM SCT025
     FM310600 16006KT P6SM SCT015=



000
FTUS44 KHGX 301120
TAFLBX
TAF
KLBX 301120Z 3012/3112 VRB03KT 3SM BR BKN010
      TEMPO 3012/3014 1/4SM FG VV007
     FM301500 18006KT P6SM BKN015
     FM301800 18010KT P6SM SCT035
     FM310500 17003KT 6SM BR SCT015 BKN025
     FM310900 17003KT 2SM BR SCT007 OVC015=



000
FTUS44 KHGX 301120
TAFHOU
TAF
KHOU 301120Z 3012/3112 19003KT P6SM SCT015 SCT025
      TEMPO 3012/3015 BKN015 BKN025
     FM301600 19007KT P6SM SCT025
     FM301800 18009KT P6SM SCT035
     FM310500 18003KT P6SM SCT015 BKN025
     FM310900 18002KT 6SM BR SCT007 OVC015=



000
FTUS44 KHGX 301009 AAC
TAFLBX
TAF AMD
KLBX 301009Z 3010/3106 18003KT 3SM BR SCT010
      TEMPO 3010/3013 1/4SM FG VV007
     FM301300 18004KT 6SM BR BKN015
     FM301600 19007KT P6SM SCT025
     FM301800 18010KT P6SM SCT035 SCT250=



000
FTUS44 KHGX 301009 AAC
TAFLBX
TAF AMD
KLBX 301009Z 3010/3106 18003KT 3SM BR SCT010
      TEMPO 3010/3013 1/4SM FG VV007
     FM301300 18004KT 6SM BR BKN015
     FM301600 19007KT P6SM SCT025
     FM301800 18010KT P6SM SCT035 SCT250=



000
FTUS44 KHGX 301009 AAC
TAFLBX
TAF AMD
KLBX 301009Z 3010/3106 18003KT 3SM BR SCT010
      TEMPO 3010/3013 1/4SM FG VV007
     FM301300 18004KT 6SM BR BKN015
     FM301600 19007KT P6SM SCT025
     FM301800 18010KT P6SM SCT035 SCT250=



000
FTUS44 KHGX 300929 AAB
TAFLBX
TAF AMD
KLBX 300929Z 3009/3106 18003KT 3SM BR SCT014
      TEMPO 3009/3013 3/4SM BR VV014
     FM301300 18004KT 6SM BR BKN015
     FM301600 19007KT P6SM SCT025
     FM301800 18010KT P6SM SCT035 SCT250=



000
FTUS44 KHGX 300929 AAB
TAFLBX
TAF AMD
KLBX 300929Z 3009/3106 18003KT 3SM BR SCT014
      TEMPO 3009/3013 3/4SM BR VV014
     FM301300 18004KT 6SM BR BKN015
     FM301600 19007KT P6SM SCT025
     FM301800 18010KT P6SM SCT035 SCT250=



000
FTUS44 KHGX 300929 AAB
TAFLBX
TAF AMD
KLBX 300929Z 3009/3106 18003KT 3SM BR SCT014
      TEMPO 3009/3013 3/4SM BR VV014
     FM301300 18004KT 6SM BR BKN015
     FM301600 19007KT P6SM SCT025
     FM301800 18010KT P6SM SCT035 SCT250=



000
FTUS44 KHGX 300929 AAB
TAFLBX
TAF AMD
KLBX 300929Z 3009/3106 18003KT 3SM BR SCT014
      TEMPO 3009/3013 3/4SM BR VV014
     FM301300 18004KT 6SM BR BKN015
     FM301600 19007KT P6SM SCT025
     FM301800 18010KT P6SM SCT035 SCT250=



000
FTUS44 KHGX 300902 AAA
TAFLBX
TAF AMD
KLBX 300902Z 3009/3106 18004KT 6SM BR SCT015
      TEMPO 3009/3013 3SM BR BKN015
     FM301300 18004KT 6SM BR BKN015
     FM301600 19007KT P6SM SCT025
     FM301800 18010KT P6SM SCT035 SCT250=



000
FTUS44 KHGX 300902 AAA
TAFLBX
TAF AMD
KLBX 300902Z 3009/3106 18004KT 6SM BR SCT015
      TEMPO 3009/3013 3SM BR BKN015
     FM301300 18004KT 6SM BR BKN015
     FM301600 19007KT P6SM SCT025
     FM301800 18010KT P6SM SCT035 SCT250=



000
FTUS44 KHGX 300902 AAA
TAFLBX
TAF AMD
KLBX 300902Z 3009/3106 18004KT 6SM BR SCT015
      TEMPO 3009/3013 3SM BR BKN015
     FM301300 18004KT 6SM BR BKN015
     FM301600 19007KT P6SM SCT025
     FM301800 18010KT P6SM SCT035 SCT250=



000
FTUS44 KHGX 300902 AAA
TAFLBX
TAF AMD
KLBX 300902Z 3009/3106 18004KT 6SM BR SCT015
      TEMPO 3009/3013 3SM BR BKN015
     FM301300 18004KT 6SM BR BKN015
     FM301600 19007KT P6SM SCT025
     FM301800 18010KT P6SM SCT035 SCT250=



000
FTUS44 KHGX 300859 AAA
TAFSGR
TAF AMD
KSGR 300859Z 3009/3106 19004KT P6SM SCT018
      TEMPO 3011/3015 BKN018
     FM301600 19007KT P6SM SCT025
     FM301800 18010KT P6SM SCT035 SCT250=



000
FTUS44 KHGX 300859 AAA
TAFSGR
TAF AMD
KSGR 300859Z 3009/3106 19004KT P6SM SCT018
      TEMPO 3011/3015 BKN018
     FM301600 19007KT P6SM SCT025
     FM301800 18010KT P6SM SCT035 SCT250=



000
FTUS44 KHGX 300858 AAA
TAFHOU
TAF AMD
KHOU 300858Z 3009/3106 18003KT P6SM SCT018
      TEMPO 3011/3015 BKN018
     FM301600 19007KT P6SM SCT025
     FM301800 18010KT P6SM SCT035 SCT250=



000
FTUS44 KHGX 300858 AAA
TAFHOU
TAF AMD
KHOU 300858Z 3009/3106 18003KT P6SM SCT018
      TEMPO 3011/3015 BKN018
     FM301600 19007KT P6SM SCT025
     FM301800 18010KT P6SM SCT035 SCT250=



000
FTUS44 KHGX 300858 AAA
TAFHOU
TAF AMD
KHOU 300858Z 3009/3106 18003KT P6SM SCT018
      TEMPO 3011/3015 BKN018
     FM301600 19007KT P6SM SCT025
     FM301800 18010KT P6SM SCT035 SCT250=



000
FTUS44 KHGX 300858 AAA
TAFHOU
TAF AMD
KHOU 300858Z 3009/3106 18003KT P6SM SCT018
      TEMPO 3011/3015 BKN018
     FM301600 19007KT P6SM SCT025
     FM301800 18010KT P6SM SCT035 SCT250=



000
FTUS44 KHGX 300857 AAA
TAFIAH
TAF AMD
KIAH 300857Z 3009/3112 18004KT P6SM SCT019
      TEMPO 3011/3015 BKN019
     FM301500 19007KT P6SM BKN020
     FM301800 18008KT P6SM SCT035 BKN250
     FM310500 17005KT P6SM BKN022=



000
FTUS44 KHGX 300857 AAA
TAFIAH
TAF AMD
KIAH 300857Z 3009/3112 18004KT P6SM SCT019
      TEMPO 3011/3015 BKN019
     FM301500 19007KT P6SM BKN020
     FM301800 18008KT P6SM SCT035 BKN250
     FM310500 17005KT P6SM BKN022=



000
FTUS44 KHGX 300857 AAA
TAFIAH
TAF AMD
KIAH 300857Z 3009/3112 18004KT P6SM SCT019
      TEMPO 3011/3015 BKN019
     FM301500 19007KT P6SM BKN020
     FM301800 18008KT P6SM SCT035 BKN250
     FM310500 17005KT P6SM BKN022=



000
FTUS44 KHGX 300857 AAA
TAFIAH
TAF AMD
KIAH 300857Z 3009/3112 18004KT P6SM SCT019
      TEMPO 3011/3015 BKN019
     FM301500 19007KT P6SM BKN020
     FM301800 18008KT P6SM SCT035 BKN250
     FM310500 17005KT P6SM BKN022=



000
FTUS44 KHGX 300521
TAFCXO
TAF
KCXO 300521Z 3006/3106 19010KT P6SM FEW024
      TEMPO 3006/3009 BKN018
     FM300900 21003KT P6SM OVC012
      TEMPO 3010/3013 4SM BR OVC008
     FM301500 19004KT P6SM BKN015
     FM301600 20007KT P6SM BKN025
     FM301800 19009KT P6SM SCT035
     FM310500 18006KT P6SM BKN022=



000
FTUS44 KHGX 300521
TAFCLL
TAF
KCLL 300521Z 3006/3106 18009KT P6SM BKN022 WS012/21030KT
     FM301000 18006KT P6SM OVC015
     FM301500 20008KT P6SM BKN025
     FM301800 18009KT P6SM SCT040
     FM310500 18006KT P6SM BKN022=



000
FTUS44 KHGX 300521
TAFLBX
TAF
KLBX 300521Z 3006/3106 17009KT P6SM SKC
      TEMPO 3007/3009 BKN018
     FM300900 18004KT P6SM OVC015
      TEMPO 3014/3016 BKN018
     FM301600 19007KT P6SM SCT025
     FM301800 18010KT P6SM SCT035 SCT250=



000
FTUS44 KHGX 300521
TAFUTS
TAF
KUTS 300521Z 3006/3106 20008KT P6SM BKN025 WS012/21030KT
     FM300900 20003KT P6SM OVC016
     FM301400 20006KT P6SM BKN025
     FM301800 19007KT P6SM SCT040
     FM310500 18006KT P6SM BKN022=



000
FTUS44 KHGX 300521
TAFSGR
TAF
KSGR 300521Z 3006/3106 17010KT P6SM SKC
      TEMPO 3007/3009 BKN018
     FM300900 18004KT P6SM BKN015
     FM301600 19007KT P6SM SCT025
     FM301800 18010KT P6SM SCT035 SCT250=



000
FTUS44 KHGX 300521
TAFIAH
TAF
KIAH 300521Z 3006/3112 17006KT P6SM FEW025
     FM300900 18004KT P6SM OVC018
     FM301500 19007KT P6SM BKN020
     FM301800 18008KT P6SM SCT035 BKN250
     FM310500 17005KT P6SM BKN022=



000
FTUS44 KHGX 300521
TAFHOU
TAF
KHOU 300521Z 3006/3106 18008KT P6SM FEW025
     FM300900 18004KT P6SM BKN018
     FM301600 19007KT P6SM SCT025
     FM301800 18010KT P6SM SCT035 SCT250=



000
FTUS44 KHGX 300521
TAFUTS
TAF
KUTS 300521Z 3006/3106 20008KT P6SM BKN025 WS012/21030KT
     FM300900 20003KT P6SM OVC016
     FM301400 20006KT P6SM BKN025
     FM301800 19007KT P6SM SCT040
     FM310500 18006KT P6SM BKN022=



000
FTUS44 KHGX 300521
TAFGLS
TAF
KGLS 300521Z 3006/3106 17010KT P6SM SKC
      TEMPO 3009/3013 BKN020
     FM301300 18008KT P6SM SCT020=



000
FTUS44 KHGX 300521
TAFGLS
TAF
KGLS 300521Z 3006/3106 17010KT P6SM SKC
      TEMPO 3009/3013 BKN020
     FM301300 18008KT P6SM SCT020=



000
FTUS44 KHGX 300521
TAFUTS
TAF
KUTS 300521Z 3006/3106 20008KT P6SM BKN025 WS012/21030KT
     FM300900 20003KT P6SM OVC016
     FM301400 20006KT P6SM BKN025
     FM301800 19007KT P6SM SCT040
     FM310500 18006KT P6SM BKN022=



000
FTUS44 KHGX 300521
TAFIAH
TAF
KIAH 300521Z 3006/3112 17006KT P6SM FEW025
     FM300900 18004KT P6SM OVC018
     FM301500 19007KT P6SM BKN020
     FM301800 18008KT P6SM SCT035 BKN250
     FM310500 17005KT P6SM BKN022=



000
FTUS44 KHGX 300521
TAFHOU
TAF
KHOU 300521Z 3006/3106 18008KT P6SM FEW025
     FM300900 18004KT P6SM BKN018
     FM301600 19007KT P6SM SCT025
     FM301800 18010KT P6SM SCT035 SCT250=



000
FTUS44 KHGX 300521
TAFLBX
TAF
KLBX 300521Z 3006/3106 17009KT P6SM SKC
      TEMPO 3007/3009 BKN018
     FM300900 18004KT P6SM OVC015
      TEMPO 3014/3016 BKN018
     FM301600 19007KT P6SM SCT025
     FM301800 18010KT P6SM SCT035 SCT250=



000
FTUS44 KHGX 300521
TAFSGR
TAF
KSGR 300521Z 3006/3106 17010KT P6SM SKC
      TEMPO 3007/3009 BKN018
     FM300900 18004KT P6SM BKN015
     FM301600 19007KT P6SM SCT025
     FM301800 18010KT P6SM SCT035 SCT250=



000
FTUS44 KHGX 300521
TAFCXO
TAF
KCXO 300521Z 3006/3106 19010KT P6SM FEW024
      TEMPO 3006/3009 BKN018
     FM300900 21003KT P6SM OVC012
      TEMPO 3010/3013 4SM BR OVC008
     FM301500 19004KT P6SM BKN015
     FM301600 20007KT P6SM BKN025
     FM301800 19009KT P6SM SCT035
     FM310500 18006KT P6SM BKN022=



000
FTUS44 KHGX 300521
TAFGLS
TAF
KGLS 300521Z 3006/3106 17010KT P6SM SKC
      TEMPO 3009/3013 BKN020
     FM301300 18008KT P6SM SCT020=



000
FTUS44 KHGX 300521
TAFIAH
TAF
KIAH 300521Z 3006/3112 17006KT P6SM FEW025
     FM300900 18004KT P6SM OVC018
     FM301500 19007KT P6SM BKN020
     FM301800 18008KT P6SM SCT035 BKN250
     FM310500 17005KT P6SM BKN022=



000
FTUS44 KHGX 300521
TAFLBX
TAF
KLBX 300521Z 3006/3106 17009KT P6SM SKC
      TEMPO 3007/3009 BKN018
     FM300900 18004KT P6SM OVC015
      TEMPO 3014/3016 BKN018
     FM301600 19007KT P6SM SCT025
     FM301800 18010KT P6SM SCT035 SCT250=



000
FTUS44 KHGX 300521
TAFHOU
TAF
KHOU 300521Z 3006/3106 18008KT P6SM FEW025
     FM300900 18004KT P6SM BKN018
     FM301600 19007KT P6SM SCT025
     FM301800 18010KT P6SM SCT035 SCT250=



000
FTUS44 KHGX 300521
TAFSGR
TAF
KSGR 300521Z 3006/3106 17010KT P6SM SKC
      TEMPO 3007/3009 BKN018
     FM300900 18004KT P6SM BKN015
     FM301600 19007KT P6SM SCT025
     FM301800 18010KT P6SM SCT035 SCT250=



000
FTUS44 KHGX 300521
TAFCLL
TAF
KCLL 300521Z 3006/3106 18009KT P6SM BKN022 WS012/21030KT
     FM301000 18006KT P6SM OVC015
     FM301500 20008KT P6SM BKN025
     FM301800 18009KT P6SM SCT040
     FM310500 18006KT P6SM BKN022=



000
FTUS44 KHGX 300521
TAFCXO
TAF
KCXO 300521Z 3006/3106 19010KT P6SM FEW024
      TEMPO 3006/3009 BKN018
     FM300900 21003KT P6SM OVC012
      TEMPO 3010/3013 4SM BR OVC008
     FM301500 19004KT P6SM BKN015
     FM301600 20007KT P6SM BKN025
     FM301800 19009KT P6SM SCT035
     FM310500 18006KT P6SM BKN022=



000
FTUS44 KHGX 300521
TAFCLL
TAF
KCLL 300521Z 3006/3106 18009KT P6SM BKN022 WS012/21030KT
     FM301000 18006KT P6SM OVC015
     FM301500 20008KT P6SM BKN025
     FM301800 18009KT P6SM SCT040
     FM310500 18006KT P6SM BKN022=



000
FTUS44 KHGX 300521
TAFHOU
TAF
KHOU 300521Z 3006/3106 18008KT P6SM FEW025
     FM300900 18004KT P6SM BKN018
     FM301600 19007KT P6SM SCT025
     FM301800 18010KT P6SM SCT035 SCT250=



000
FTUS44 KHGX 300521
TAFSGR
TAF
KSGR 300521Z 3006/3106 17010KT P6SM SKC
      TEMPO 3007/3009 BKN018
     FM300900 18004KT P6SM BKN015
     FM301600 19007KT P6SM SCT025
     FM301800 18010KT P6SM SCT035 SCT250=



000
FTUS44 KHGX 300521
TAFLBX
TAF
KLBX 300521Z 3006/3106 17009KT P6SM SKC
      TEMPO 3007/3009 BKN018
     FM300900 18004KT P6SM OVC015
      TEMPO 3014/3016 BKN018
     FM301600 19007KT P6SM SCT025
     FM301800 18010KT P6SM SCT035 SCT250=



000
FTUS44 KHGX 300521
TAFUTS
TAF
KUTS 300521Z 3006/3106 20008KT P6SM BKN025 WS012/21030KT
     FM300900 20003KT P6SM OVC016
     FM301400 20006KT P6SM BKN025
     FM301800 19007KT P6SM SCT040
     FM310500 18006KT P6SM BKN022=



000
FTUS44 KHGX 300521
TAFCLL
TAF
KCLL 300521Z 3006/3106 18009KT P6SM BKN022 WS012/21030KT
     FM301000 18006KT P6SM OVC015
     FM301500 20008KT P6SM BKN025
     FM301800 18009KT P6SM SCT040
     FM310500 18006KT P6SM BKN022=



000
FTUS44 KHGX 300521
TAFGLS
TAF
KGLS 300521Z 3006/3106 17010KT P6SM SKC
      TEMPO 3009/3013 BKN020
     FM301300 18008KT P6SM SCT020=



000
FTUS44 KHGX 300521
TAFIAH
TAF
KIAH 300521Z 3006/3112 17006KT P6SM FEW025
     FM300900 18004KT P6SM OVC018
     FM301500 19007KT P6SM BKN020
     FM301800 18008KT P6SM SCT035 BKN250
     FM310500 17005KT P6SM BKN022=



000
FTUS44 KHGX 300521
TAFCXO
TAF
KCXO 300521Z 3006/3106 19010KT P6SM FEW024
      TEMPO 3006/3009 BKN018
     FM300900 21003KT P6SM OVC012
      TEMPO 3010/3013 4SM BR OVC008
     FM301500 19004KT P6SM BKN015
     FM301600 20007KT P6SM BKN025
     FM301800 19009KT P6SM SCT035
     FM310500 18006KT P6SM BKN022=



000
FTUS44 KHGX 300338 AAA
TAFIAH
TAF AMD
KIAH 300338Z 3004/3106 18010G15KT P6SM FEW027
     FM300500 18007KT P6SM BKN025
     FM300900 18004KT P6SM OVC018
     FM301500 19007KT P6SM BKN020
     FM301800 18008KT P6SM SCT035 BKN250
     FM310500 17005KT P6SM BKN022=



000
FTUS44 KHGX 300338 AAA
TAFHOU
TAF AMD
KHOU 300338Z 3004/3024 18007KT P6SM FEW025
     FM300600 18006KT P6SM BKN025
     FM300900 18004KT P6SM BKN018
     FM301600 19007KT P6SM SCT025
     FM301800 18010KT P6SM SCT035 SCT250=



000
FTUS44 KHGX 300338 AAA
TAFHOU
TAF AMD
KHOU 300338Z 3004/3024 18007KT P6SM FEW025
     FM300600 18006KT P6SM BKN025
     FM300900 18004KT P6SM BKN018
     FM301600 19007KT P6SM SCT025
     FM301800 18010KT P6SM SCT035 SCT250=



000
FTUS44 KHGX 300338 AAA
TAFIAH
TAF AMD
KIAH 300338Z 3004/3106 18010G15KT P6SM FEW027
     FM300500 18007KT P6SM BKN025
     FM300900 18004KT P6SM OVC018
     FM301500 19007KT P6SM BKN020
     FM301800 18008KT P6SM SCT035 BKN250
     FM310500 17005KT P6SM BKN022=



000
FTUS44 KHGX 292336
TAFLBX
TAF
KLBX 292336Z 3000/3024 19018G25KT P6SM SKC
     FM300130 19009KT P6SM FEW025 WS018/20030KT
     FM300600 18007KT P6SM SCT020
      TEMPO 3007/3009 BKN018
     FM300900 18004KT P6SM OVC015
      TEMPO 3014/3016 BKN018
     FM301600 19007KT P6SM SCT025
     FM301800 18010KT P6SM SCT035 SCT250=



000
FTUS44 KHGX 292336
TAFSGR
TAF
KSGR 292336Z 3000/3024 20014KT P6SM SKC
     FM300130 19009KT P6SM SKC WS018/20030KT
     FM300600 18006KT P6SM SCT020
      TEMPO 3007/3009 BKN018
     FM300900 18004KT P6SM BKN015
     FM301600 19007KT P6SM SCT025
     FM301800 18010KT P6SM SCT035 SCT250=



000
FTUS44 KHGX 292336
TAFGLS
TAF
KGLS 292336Z 3000/3024 17011KT P6SM SKC
      TEMPO 3009/3013 BKN020
     FM301300 18008KT P6SM SCT020=



000
FTUS44 KHGX 292336
TAFSGR
TAF
KSGR 292336Z 3000/3024 20014KT P6SM SKC
     FM300130 19009KT P6SM SKC WS018/20030KT
     FM300600 18006KT P6SM SCT020
      TEMPO 3007/3009 BKN018
     FM300900 18004KT P6SM BKN015
     FM301600 19007KT P6SM SCT025
     FM301800 18010KT P6SM SCT035 SCT250=



000
FTUS44 KHGX 292336
TAFHOU
TAF
KHOU 292336Z 3000/3024 20012G19KT P6SM FEW035
     FM300200 18009KT P6SM SKC
     FM300600 18006KT P6SM BKN020
     FM300900 18004KT P6SM BKN015
     FM301600 19007KT P6SM SCT025
     FM301800 18010KT P6SM SCT035 SCT250=



000
FTUS44 KHGX 292336
TAFLBX
TAF
KLBX 292336Z 3000/3024 19018G25KT P6SM SKC
     FM300130 19009KT P6SM FEW025 WS018/20030KT
     FM300600 18007KT P6SM SCT020
      TEMPO 3007/3009 BKN018
     FM300900 18004KT P6SM OVC015
      TEMPO 3014/3016 BKN018
     FM301600 19007KT P6SM SCT025
     FM301800 18010KT P6SM SCT035 SCT250=



000
FTUS44 KHGX 292336
TAFGLS
TAF
KGLS 292336Z 3000/3024 17011KT P6SM SKC
      TEMPO 3009/3013 BKN020
     FM301300 18008KT P6SM SCT020=



000
FTUS44 KHGX 292336
TAFHOU
TAF
KHOU 292336Z 3000/3024 20012G19KT P6SM FEW035
     FM300200 18009KT P6SM SKC
     FM300600 18006KT P6SM BKN020
     FM300900 18004KT P6SM BKN015
     FM301600 19007KT P6SM SCT025
     FM301800 18010KT P6SM SCT035 SCT250=



000
FTUS44 KHGX 292336
TAFSGR
TAF
KSGR 292336Z 3000/3024 20014KT P6SM SKC
     FM300130 19009KT P6SM SKC WS018/20030KT
     FM300600 18006KT P6SM SCT020
      TEMPO 3007/3009 BKN018
     FM300900 18004KT P6SM BKN015
     FM301600 19007KT P6SM SCT025
     FM301800 18010KT P6SM SCT035 SCT250=



000
FTUS44 KHGX 292327
TAFCXO
TAF
KCXO 292327Z 3000/3024 20010G18KT P6SM SKC
     FM300200 19008KT P6SM SKC WS018/20032KT
     FM300600 19004KT P6SM BKN015
     FM300900 21003KT 5SM BR OVC012
      TEMPO 3010/3013 2SM BR OVC008
     FM301500 19004KT P6SM BKN015
     FM301600 20007KT P6SM BKN025
     FM301800 19009KT P6SM SCT035=



000
FTUS44 KHGX 292327
TAFCLL
TAF
KCLL 292327Z 3000/3024 17009G16KT P6SM SKC
     FM300200 18009KT P6SM SKC WS018/20032KT
     FM300600 17009KT P6SM BKN015 WS015/21030KT
     FM301000 18006KT P6SM OVC012
     FM301500 20008KT P6SM BKN025
     FM301800 18009KT P6SM SCT040=



000
FTUS44 KHGX 292327
TAFIAH
TAF
KIAH 292327Z 3000/3106 17010KT P6SM SKC
     FM300500 18007KT P6SM BKN020
     FM300900 18004KT P6SM OVC015
     FM301500 19007KT P6SM BKN020
     FM301800 18008KT P6SM SCT035 BKN250
     FM310500 17005KT P6SM BKN022=



000
FTUS44 KHGX 292327
TAFUTS
TAF
KUTS 292327Z 3000/3024 20010G15KT P6SM SKC
     FM300200 18008KT P6SM SKC WS018/20032KT
     FM300600 19005KT P6SM SCT015 WS015/21030KT
     FM300900 20003KT 6SM BR OVC015
     FM301400 20006KT P6SM BKN025=



000
FTUS44 KHGX 292327
TAFCXO
TAF
KCXO 292327Z 3000/3024 20010G18KT P6SM SKC
     FM300200 19008KT P6SM SKC WS018/20032KT
     FM300600 19004KT P6SM BKN015
     FM300900 21003KT 5SM BR OVC012
      TEMPO 3010/3013 2SM BR OVC008
     FM301500 19004KT P6SM BKN015
     FM301600 20007KT P6SM BKN025
     FM301800 19009KT P6SM SCT035=



000
FTUS44 KHGX 292327
TAFUTS
TAF
KUTS 292327Z 3000/3024 20010G15KT P6SM SKC
     FM300200 18008KT P6SM SKC WS018/20032KT
     FM300600 19005KT P6SM SCT015 WS015/21030KT
     FM300900 20003KT 6SM BR OVC015
     FM301400 20006KT P6SM BKN025=



000
FTUS44 KHGX 292327
TAFCLL
TAF
KCLL 292327Z 3000/3024 17009G16KT P6SM SKC
     FM300200 18009KT P6SM SKC WS018/20032KT
     FM300600 17009KT P6SM BKN015 WS015/21030KT
     FM301000 18006KT P6SM OVC012
     FM301500 20008KT P6SM BKN025
     FM301800 18009KT P6SM SCT040=



000
FTUS44 KHGX 292327
TAFIAH
TAF
KIAH 292327Z 3000/3106 17010KT P6SM SKC
     FM300500 18007KT P6SM BKN020
     FM300900 18004KT P6SM OVC015
     FM301500 19007KT P6SM BKN020
     FM301800 18008KT P6SM SCT035 BKN250
     FM310500 17005KT P6SM BKN022=



000
FTUS44 KHGX 292129 AAA
TAFSGR
TAF AMD
KSGR 292129Z 2921/3018 19014G22KT P6SM FEW040
     FM300200 18010KT P6SM SCT250
     FM300500 16008KT P6SM SCT007 BKN015
     FM300700 18006KT P6SM SCT007 BKN015
     FM300900 18005KT P6SM OVC015
     FM301500 19008KT P6SM BKN025=



000
FTUS44 KHGX 292129 AAA
TAFCXO
TAF AMD
KCXO 292129Z 2921/3018 21012G21KT P6SM SKC
     FM300200 18009KT P6SM SCT250
     FM300600 19004KT P6SM SCT007 BKN015
     FM300900 21003KT 3SM BR OVC012
      TEMPO 3010/3013 1SM BR OVC008
     FM301500 19004KT 5SM BR BKN015=



000
FTUS44 KHGX 292129 AAA
TAFIAH
TAF AMD
KIAH 292129Z 2921/3024 19010G19KT P6SM FEW045
     FM300400 18005KT P6SM SCT007 BKN015
     FM300900 19004KT P6SM OVC015
     FM301500 19007KT P6SM BKN020
     FM301800 18008KT P6SM SCT035 BKN250=



000
FTUS44 KHGX 292129 AAA
TAFIAH
TAF AMD
KIAH 292129Z 2921/3024 19010G19KT P6SM FEW045
     FM300400 18005KT P6SM SCT007 BKN015
     FM300900 19004KT P6SM OVC015
     FM301500 19007KT P6SM BKN020
     FM301800 18008KT P6SM SCT035 BKN250=



000
FTUS44 KHGX 292129 AAA
TAFHOU
TAF AMD
KHOU 292129Z 2921/3018 20015G22KT P6SM SCT040
     FM300200 18007KT P6SM SCT250
     FM300700 18003KT P6SM SCT007 BKN015
     FM300900 20003KT P6SM OVC015
     FM301500 19006KT P6SM BKN025=



000
FTUS44 KHGX 292129 AAA
TAFCXO
TAF AMD
KCXO 292129Z 2921/3018 21012G21KT P6SM SKC
     FM300200 18009KT P6SM SCT250
     FM300600 19004KT P6SM SCT007 BKN015
     FM300900 21003KT 3SM BR OVC012
      TEMPO 3010/3013 1SM BR OVC008
     FM301500 19004KT 5SM BR BKN015=



000
FTUS44 KHGX 292129 AAA
TAFHOU
TAF AMD
KHOU 292129Z 2921/3018 20015G22KT P6SM SCT040
     FM300200 18007KT P6SM SCT250
     FM300700 18003KT P6SM SCT007 BKN015
     FM300900 20003KT P6SM OVC015
     FM301500 19006KT P6SM BKN025=



000
FTUS44 KHGX 292129 AAA
TAFSGR
TAF AMD
KSGR 292129Z 2921/3018 19014G22KT P6SM FEW040
     FM300200 18010KT P6SM SCT250
     FM300500 16008KT P6SM SCT007 BKN015
     FM300700 18006KT P6SM SCT007 BKN015
     FM300900 18005KT P6SM OVC015
     FM301500 19008KT P6SM BKN025=



    US Dept of Commerce
    National Oceanic and Atmospheric Administration
    National Weather Service
    1325 East West Highway
    Silver Spring, MD 20910
    Page Author: NWS Internet Services Team
Disclaimer
Information Quality
Credits
Glossary
Privacy Policy
Freedom of Information Act (FOIA)
About Us
Career Opportunities